<?xml version="1.0" encoding="UTF-8" standalone="no" ?>
<gpx xmlns="http://www.topografix.com/GPX/1/1" xmlns:xsi="http://www.w3.org/2001/XMLSchema-instance" xsi:schemaLocation="http://www.topografix.com/GPX/1/1 http://www.topografix.com/GPX/1/1/gpx.xsd" version="1.1" creator="VisuGPX - https://www.visugpx.com">
  <metadata>
    <name>Serre de la Ramade - Cornillon</name>
    <desc><![CDATA[Au départ de l' Agachou boucle au dessus du Chassezac, point de vue circulaire depuis le Serre et passage aérien dans les ruines de Cornillon avant de retrouver le cirque d' Endieu.]]></desc>
  </metadata>
  <trk>
    <name><![CDATA[RAMADE]]></name>
    <trkseg>
      <trkpt lat="44.40597" lon="4.19675">
        <ele>205.38</ele>
        <time>2016-02-02T13:06:04Z</time>
      </trkpt>
      <trkpt lat="44.406" lon="4.19679">
        <ele>205.38</ele>
        <time>2016-02-02T13:06:31Z</time>
      </trkpt>
      <trkpt lat="44.40601" lon="4.19684">
        <ele>204.9</ele>
        <time>2016-02-02T13:07:07Z</time>
      </trkpt>
      <trkpt lat="44.40599" lon="4.19679">
        <ele>205.38</ele>
        <time>2016-02-02T13:07:34Z</time>
      </trkpt>
      <trkpt lat="44.406" lon="4.19681">
        <ele>204.9</ele>
        <time>2016-02-02T13:07:54Z</time>
      </trkpt>
      <trkpt lat="44.40596" lon="4.19679">
        <ele>204.9</ele>
        <time>2016-02-02T13:08:28Z</time>
      </trkpt>
      <trkpt lat="44.40594" lon="4.19679">
        <ele>204.42</ele>
        <time>2016-02-02T13:09:01Z</time>
      </trkpt>
      <trkpt lat="44.4059" lon="4.19678">
        <ele>203.94</ele>
        <time>2016-02-02T13:09:31Z</time>
      </trkpt>
      <trkpt lat="44.40593" lon="4.19679">
        <ele>203.94</ele>
        <time>2016-02-02T13:09:43Z</time>
      </trkpt>
      <trkpt lat="44.40598" lon="4.19701">
        <ele>203.46</ele>
        <time>2016-02-02T13:09:57Z</time>
      </trkpt>
      <trkpt lat="44.40597" lon="4.19702">
        <ele>203.46</ele>
        <time>2016-02-02T13:09:59Z</time>
      </trkpt>
      <trkpt lat="44.40582" lon="4.19706">
        <ele>203.94</ele>
        <time>2016-02-02T13:10:11Z</time>
      </trkpt>
      <trkpt lat="44.4058" lon="4.19716">
        <ele>203.94</ele>
        <time>2016-02-02T13:10:24Z</time>
      </trkpt>
      <trkpt lat="44.40579" lon="4.19719">
        <ele>203.94</ele>
        <time>2016-02-02T13:10:26Z</time>
      </trkpt>
      <trkpt lat="44.40575" lon="4.19736">
        <ele>202.49</ele>
        <time>2016-02-02T13:10:40Z</time>
      </trkpt>
      <trkpt lat="44.4057" lon="4.1975">
        <ele>202.49</ele>
        <time>2016-02-02T13:10:51Z</time>
      </trkpt>
      <trkpt lat="44.40561" lon="4.19764">
        <ele>202.49</ele>
        <time>2016-02-02T13:11:02Z</time>
      </trkpt>
      <trkpt lat="44.40556" lon="4.19772">
        <ele>202.01</ele>
        <time>2016-02-02T13:11:11Z</time>
      </trkpt>
      <trkpt lat="44.40548" lon="4.19788">
        <ele>203.46</ele>
        <time>2016-02-02T13:11:24Z</time>
      </trkpt>
      <trkpt lat="44.40547" lon="4.19789">
        <ele>203.46</ele>
        <time>2016-02-02T13:11:25Z</time>
      </trkpt>
      <trkpt lat="44.40547" lon="4.19791">
        <ele>203.94</ele>
        <time>2016-02-02T13:11:27Z</time>
      </trkpt>
      <trkpt lat="44.40547" lon="4.19805">
        <ele>204.42</ele>
        <time>2016-02-02T13:11:39Z</time>
      </trkpt>
      <trkpt lat="44.4054" lon="4.1982">
        <ele>206.34</ele>
        <time>2016-02-02T13:11:55Z</time>
      </trkpt>
      <trkpt lat="44.40536" lon="4.19829">
        <ele>207.78</ele>
        <time>2016-02-02T13:12:08Z</time>
      </trkpt>
      <trkpt lat="44.4054" lon="4.19837">
        <ele>208.74</ele>
        <time>2016-02-02T13:12:20Z</time>
      </trkpt>
      <trkpt lat="44.40541" lon="4.19851">
        <ele>208.74</ele>
        <time>2016-02-02T13:12:33Z</time>
      </trkpt>
      <trkpt lat="44.40541" lon="4.19861">
        <ele>209.22</ele>
        <time>2016-02-02T13:12:51Z</time>
      </trkpt>
      <trkpt lat="44.4054" lon="4.19863">
        <ele>208.74</ele>
        <time>2016-02-02T13:13:02Z</time>
      </trkpt>
      <trkpt lat="44.40539" lon="4.19865">
        <ele>206.82</ele>
        <time>2016-02-02T13:13:16Z</time>
      </trkpt>
      <trkpt lat="44.40541" lon="4.19865">
        <ele>206.82</ele>
        <time>2016-02-02T13:13:31Z</time>
      </trkpt>
      <trkpt lat="44.40542" lon="4.19868">
        <ele>206.34</ele>
        <time>2016-02-02T13:13:55Z</time>
      </trkpt>
      <trkpt lat="44.40538" lon="4.19874">
        <ele>204.9</ele>
        <time>2016-02-02T13:14:09Z</time>
      </trkpt>
      <trkpt lat="44.40533" lon="4.19873">
        <ele>204.9</ele>
        <time>2016-02-02T13:14:24Z</time>
      </trkpt>
      <trkpt lat="44.40535" lon="4.19874">
        <ele>204.42</ele>
        <time>2016-02-02T13:14:45Z</time>
      </trkpt>
      <trkpt lat="44.40537" lon="4.19869">
        <ele>205.38</ele>
        <time>2016-02-02T13:14:59Z</time>
      </trkpt>
      <trkpt lat="44.4054" lon="4.19864">
        <ele>206.82</ele>
        <time>2016-02-02T13:15:13Z</time>
      </trkpt>
      <trkpt lat="44.40546" lon="4.19858">
        <ele>207.78</ele>
        <time>2016-02-02T13:15:30Z</time>
      </trkpt>
      <trkpt lat="44.40548" lon="4.19865">
        <ele>208.74</ele>
        <time>2016-02-02T13:15:44Z</time>
      </trkpt>
      <trkpt lat="44.4055" lon="4.1987">
        <ele>209.7</ele>
        <time>2016-02-02T13:16:00Z</time>
      </trkpt>
      <trkpt lat="44.40549" lon="4.19865">
        <ele>208.26</ele>
        <time>2016-02-02T13:16:13Z</time>
      </trkpt>
      <trkpt lat="44.40547" lon="4.19858">
        <ele>207.3</ele>
        <time>2016-02-02T13:16:28Z</time>
      </trkpt>
      <trkpt lat="44.40541" lon="4.19856">
        <ele>205.86</ele>
        <time>2016-02-02T13:16:42Z</time>
      </trkpt>
      <trkpt lat="44.4054" lon="4.19841">
        <ele>205.38</ele>
        <time>2016-02-02T13:16:56Z</time>
      </trkpt>
      <trkpt lat="44.40549" lon="4.19842">
        <ele>206.82</ele>
        <time>2016-02-02T13:17:09Z</time>
      </trkpt>
      <trkpt lat="44.40554" lon="4.19838">
        <ele>207.78</ele>
        <time>2016-02-02T13:17:21Z</time>
      </trkpt>
      <trkpt lat="44.40565" lon="4.19836">
        <ele>209.22</ele>
        <time>2016-02-02T13:17:34Z</time>
      </trkpt>
      <trkpt lat="44.40571" lon="4.19834">
        <ele>209.7</ele>
        <time>2016-02-02T13:17:47Z</time>
      </trkpt>
      <trkpt lat="44.40581" lon="4.19834">
        <ele>210.67</ele>
        <time>2016-02-02T13:18:00Z</time>
      </trkpt>
      <trkpt lat="44.40583" lon="4.19835">
        <ele>212.59</ele>
        <time>2016-02-02T13:18:06Z</time>
      </trkpt>
      <trkpt lat="44.40592" lon="4.19836">
        <ele>213.07</ele>
        <time>2016-02-02T13:18:18Z</time>
      </trkpt>
      <trkpt lat="44.40602" lon="4.19838">
        <ele>213.55</ele>
        <time>2016-02-02T13:18:33Z</time>
      </trkpt>
      <trkpt lat="44.40607" lon="4.19845">
        <ele>214.51</ele>
        <time>2016-02-02T13:18:47Z</time>
      </trkpt>
      <trkpt lat="44.40613" lon="4.19847">
        <ele>216.43</ele>
        <time>2016-02-02T13:19:00Z</time>
      </trkpt>
      <trkpt lat="44.40619" lon="4.19853">
        <ele>218.36</ele>
        <time>2016-02-02T13:19:14Z</time>
      </trkpt>
      <trkpt lat="44.40628" lon="4.19853">
        <ele>219.32</ele>
        <time>2016-02-02T13:19:27Z</time>
      </trkpt>
      <trkpt lat="44.40631" lon="4.19852">
        <ele>217.88</ele>
        <time>2016-02-02T13:19:33Z</time>
      </trkpt>
      <trkpt lat="44.40639" lon="4.19852">
        <ele>217.88</ele>
        <time>2016-02-02T13:19:47Z</time>
      </trkpt>
      <trkpt lat="44.40652" lon="4.1985">
        <ele>216.43</ele>
        <time>2016-02-02T13:20:02Z</time>
      </trkpt>
      <trkpt lat="44.40663" lon="4.19853">
        <ele>217.88</ele>
        <time>2016-02-02T13:20:16Z</time>
      </trkpt>
      <trkpt lat="44.4067" lon="4.19856">
        <ele>219.32</ele>
        <time>2016-02-02T13:20:28Z</time>
      </trkpt>
      <trkpt lat="44.40675" lon="4.19858">
        <ele>220.28</ele>
        <time>2016-02-02T13:20:42Z</time>
      </trkpt>
      <trkpt lat="44.4067" lon="4.19859">
        <ele>218.84</ele>
        <time>2016-02-02T13:20:56Z</time>
      </trkpt>
      <trkpt lat="44.40667" lon="4.19863">
        <ele>218.36</ele>
        <time>2016-02-02T13:21:31Z</time>
      </trkpt>
      <trkpt lat="44.40672" lon="4.19862">
        <ele>218.84</ele>
        <time>2016-02-02T13:22:03Z</time>
      </trkpt>
      <trkpt lat="44.40674" lon="4.19864">
        <ele>221.24</ele>
        <time>2016-02-02T13:22:30Z</time>
      </trkpt>
      <trkpt lat="44.40673" lon="4.19882">
        <ele>221.24</ele>
        <time>2016-02-02T13:22:48Z</time>
      </trkpt>
      <trkpt lat="44.40677" lon="4.19889">
        <ele>220.28</ele>
        <time>2016-02-02T13:22:56Z</time>
      </trkpt>
      <trkpt lat="44.40678" lon="4.19891">
        <ele>221.24</ele>
        <time>2016-02-02T13:22:58Z</time>
      </trkpt>
      <trkpt lat="44.40684" lon="4.199">
        <ele>223.16</ele>
        <time>2016-02-02T13:23:08Z</time>
      </trkpt>
      <trkpt lat="44.40695" lon="4.19914">
        <ele>223.16</ele>
        <time>2016-02-02T13:23:24Z</time>
      </trkpt>
      <trkpt lat="44.40698" lon="4.19915">
        <ele>224.61</ele>
        <time>2016-02-02T13:23:26Z</time>
      </trkpt>
      <trkpt lat="44.40714" lon="4.19921">
        <ele>225.57</ele>
        <time>2016-02-02T13:23:47Z</time>
      </trkpt>
      <trkpt lat="44.40726" lon="4.1992">
        <ele>226.53</ele>
        <time>2016-02-02T13:24:03Z</time>
      </trkpt>
      <trkpt lat="44.40736" lon="4.19925">
        <ele>226.53</ele>
        <time>2016-02-02T13:24:11Z</time>
      </trkpt>
      <trkpt lat="44.40746" lon="4.19926">
        <ele>227.97</ele>
        <time>2016-02-02T13:24:25Z</time>
      </trkpt>
      <trkpt lat="44.40748" lon="4.19933">
        <ele>228.45</ele>
        <time>2016-02-02T13:24:36Z</time>
      </trkpt>
      <trkpt lat="44.40753" lon="4.19939">
        <ele>229.89</ele>
        <time>2016-02-02T13:24:49Z</time>
      </trkpt>
      <trkpt lat="44.40751" lon="4.19949">
        <ele>229.41</ele>
        <time>2016-02-02T13:25:00Z</time>
      </trkpt>
      <trkpt lat="44.40753" lon="4.19951">
        <ele>229.41</ele>
        <time>2016-02-02T13:25:04Z</time>
      </trkpt>
      <trkpt lat="44.40754" lon="4.19964">
        <ele>229.89</ele>
        <time>2016-02-02T13:25:18Z</time>
      </trkpt>
      <trkpt lat="44.40759" lon="4.19971">
        <ele>229.89</ele>
        <time>2016-02-02T13:25:30Z</time>
      </trkpt>
      <trkpt lat="44.40765" lon="4.19978">
        <ele>229.89</ele>
        <time>2016-02-02T13:25:41Z</time>
      </trkpt>
      <trkpt lat="44.40769" lon="4.19988">
        <ele>230.37</ele>
        <time>2016-02-02T13:25:55Z</time>
      </trkpt>
      <trkpt lat="44.40769" lon="4.19997">
        <ele>230.37</ele>
        <time>2016-02-02T13:26:07Z</time>
      </trkpt>
      <trkpt lat="44.4077" lon="4.20002">
        <ele>228.93</ele>
        <time>2016-02-02T13:26:16Z</time>
      </trkpt>
      <trkpt lat="44.40771" lon="4.20008">
        <ele>227.97</ele>
        <time>2016-02-02T13:26:26Z</time>
      </trkpt>
      <trkpt lat="44.4077" lon="4.20018">
        <ele>227.01</ele>
        <time>2016-02-02T13:26:34Z</time>
      </trkpt>
      <trkpt lat="44.40778" lon="4.20022">
        <ele>226.53</ele>
        <time>2016-02-02T13:26:44Z</time>
      </trkpt>
      <trkpt lat="44.40786" lon="4.20023">
        <ele>226.53</ele>
        <time>2016-02-02T13:26:56Z</time>
      </trkpt>
      <trkpt lat="44.40787" lon="4.20031">
        <ele>224.61</ele>
        <time>2016-02-02T13:27:11Z</time>
      </trkpt>
      <trkpt lat="44.40789" lon="4.20042">
        <ele>223.16</ele>
        <time>2016-02-02T13:27:25Z</time>
      </trkpt>
      <trkpt lat="44.40788" lon="4.20052">
        <ele>222.68</ele>
        <time>2016-02-02T13:27:38Z</time>
      </trkpt>
      <trkpt lat="44.40782" lon="4.2006">
        <ele>222.68</ele>
        <time>2016-02-02T13:27:53Z</time>
      </trkpt>
      <trkpt lat="44.40784" lon="4.20071">
        <ele>223.64</ele>
        <time>2016-02-02T13:28:06Z</time>
      </trkpt>
      <trkpt lat="44.40784" lon="4.20076">
        <ele>223.64</ele>
        <time>2016-02-02T13:28:11Z</time>
      </trkpt>
      <trkpt lat="44.40783" lon="4.20083">
        <ele>223.16</ele>
        <time>2016-02-02T13:28:24Z</time>
      </trkpt>
      <trkpt lat="44.40778" lon="4.20087">
        <ele>226.53</ele>
        <time>2016-02-02T13:28:35Z</time>
      </trkpt>
      <trkpt lat="44.4077" lon="4.20092">
        <ele>228.45</ele>
        <time>2016-02-02T13:28:48Z</time>
      </trkpt>
      <trkpt lat="44.40766" lon="4.20101">
        <ele>229.41</ele>
        <time>2016-02-02T13:29:02Z</time>
      </trkpt>
      <trkpt lat="44.40768" lon="4.20095">
        <ele>228.93</ele>
        <time>2016-02-02T13:29:14Z</time>
      </trkpt>
      <trkpt lat="44.40768" lon="4.20095">
        <ele>228.93</ele>
        <time>2016-02-02T13:29:15Z</time>
      </trkpt>
      <trkpt lat="44.4077" lon="4.20092">
        <ele>227.49</ele>
        <time>2016-02-02T13:29:19Z</time>
      </trkpt>
      <trkpt lat="44.40775" lon="4.20089">
        <ele>225.57</ele>
        <time>2016-02-02T13:29:33Z</time>
      </trkpt>
      <trkpt lat="44.40778" lon="4.20087">
        <ele>223.64</ele>
        <time>2016-02-02T13:29:45Z</time>
      </trkpt>
      <trkpt lat="44.40781" lon="4.20085">
        <ele>222.2</ele>
        <time>2016-02-02T13:29:59Z</time>
      </trkpt>
      <trkpt lat="44.40784" lon="4.20083">
        <ele>219.32</ele>
        <time>2016-02-02T13:30:14Z</time>
      </trkpt>
      <trkpt lat="44.40789" lon="4.20077">
        <ele>218.84</ele>
        <time>2016-02-02T13:30:32Z</time>
      </trkpt>
      <trkpt lat="44.40792" lon="4.20072">
        <ele>215.95</ele>
        <time>2016-02-02T13:30:42Z</time>
      </trkpt>
      <trkpt lat="44.40792" lon="4.20072">
        <ele>215.95</ele>
        <time>2016-02-02T13:30:43Z</time>
      </trkpt>
      <trkpt lat="44.40798" lon="4.20082">
        <ele>214.51</ele>
        <time>2016-02-02T13:31:00Z</time>
      </trkpt>
      <trkpt lat="44.40796" lon="4.2009">
        <ele>214.51</ele>
        <time>2016-02-02T13:31:21Z</time>
      </trkpt>
      <trkpt lat="44.40803" lon="4.20081">
        <ele>214.51</ele>
        <time>2016-02-02T13:31:43Z</time>
      </trkpt>
      <trkpt lat="44.40808" lon="4.20084">
        <ele>213.55</ele>
        <time>2016-02-02T13:32:06Z</time>
      </trkpt>
      <trkpt lat="44.40813" lon="4.20094">
        <ele>213.07</ele>
        <time>2016-02-02T13:32:19Z</time>
      </trkpt>
      <trkpt lat="44.40814" lon="4.201">
        <ele>208.74</ele>
        <time>2016-02-02T13:32:31Z</time>
      </trkpt>
      <trkpt lat="44.40814" lon="4.201">
        <ele>217.4</ele>
        <time>2016-02-02T13:32:32Z</time>
      </trkpt>
      <trkpt lat="44.40814" lon="4.201">
        <ele>211.63</ele>
        <time>2016-02-02T13:32:33Z</time>
      </trkpt>
      <trkpt lat="44.40814" lon="4.20111">
        <ele>209.7</ele>
        <time>2016-02-02T13:32:52Z</time>
      </trkpt>
      <trkpt lat="44.40813" lon="4.20117">
        <ele>206.34</ele>
        <time>2016-02-02T13:33:03Z</time>
      </trkpt>
      <trkpt lat="44.40815" lon="4.20118">
        <ele>206.82</ele>
        <time>2016-02-02T13:33:10Z</time>
      </trkpt>
      <trkpt lat="44.40818" lon="4.20121">
        <ele>204.42</ele>
        <time>2016-02-02T13:33:20Z</time>
      </trkpt>
      <trkpt lat="44.40821" lon="4.20135">
        <ele>202.98</ele>
        <time>2016-02-02T13:33:38Z</time>
      </trkpt>
      <trkpt lat="44.40821" lon="4.20136">
        <ele>204.9</ele>
        <time>2016-02-02T13:33:40Z</time>
      </trkpt>
      <trkpt lat="44.4082" lon="4.20136">
        <ele>203.46</ele>
        <time>2016-02-02T13:33:42Z</time>
      </trkpt>
      <trkpt lat="44.40821" lon="4.20142">
        <ele>203.94</ele>
        <time>2016-02-02T13:33:55Z</time>
      </trkpt>
      <trkpt lat="44.40823" lon="4.20144">
        <ele>204.9</ele>
        <time>2016-02-02T13:34:07Z</time>
      </trkpt>
      <trkpt lat="44.40822" lon="4.20142">
        <ele>203.46</ele>
        <time>2016-02-02T13:34:15Z</time>
      </trkpt>
      <trkpt lat="44.40821" lon="4.20138">
        <ele>204.42</ele>
        <time>2016-02-02T13:34:47Z</time>
      </trkpt>
      <trkpt lat="44.40822" lon="4.20138">
        <ele>201.05</ele>
        <time>2016-02-02T13:34:57Z</time>
      </trkpt>
      <trkpt lat="44.40822" lon="4.20138">
        <ele>205.38</ele>
        <time>2016-02-02T13:34:58Z</time>
      </trkpt>
      <trkpt lat="44.40822" lon="4.20137">
        <ele>201.05</ele>
        <time>2016-02-02T13:34:59Z</time>
      </trkpt>
      <trkpt lat="44.40822" lon="4.20137">
        <ele>204.42</ele>
        <time>2016-02-02T13:35:00Z</time>
      </trkpt>
      <trkpt lat="44.40826" lon="4.20135">
        <ele>201.05</ele>
        <time>2016-02-02T13:35:13Z</time>
      </trkpt>
      <trkpt lat="44.40833" lon="4.20136">
        <ele>199.13</ele>
        <time>2016-02-02T13:35:25Z</time>
      </trkpt>
      <trkpt lat="44.40842" lon="4.20135">
        <ele>198.65</ele>
        <time>2016-02-02T13:35:40Z</time>
      </trkpt>
      <trkpt lat="44.40846" lon="4.20136">
        <ele>198.65</ele>
        <time>2016-02-02T13:35:51Z</time>
      </trkpt>
      <trkpt lat="44.40848" lon="4.20139">
        <ele>194.8</ele>
        <time>2016-02-02T13:35:59Z</time>
      </trkpt>
      <trkpt lat="44.40849" lon="4.20139">
        <ele>194.8</ele>
        <time>2016-02-02T13:36:00Z</time>
      </trkpt>
      <trkpt lat="44.40849" lon="4.20139">
        <ele>203.94</ele>
        <time>2016-02-02T13:36:01Z</time>
      </trkpt>
      <trkpt lat="44.40849" lon="4.20139">
        <ele>199.13</ele>
        <time>2016-02-02T13:36:02Z</time>
      </trkpt>
      <trkpt lat="44.4085" lon="4.20139">
        <ele>197.69</ele>
        <time>2016-02-02T13:36:04Z</time>
      </trkpt>
      <trkpt lat="44.40853" lon="4.2014">
        <ele>201.53</ele>
        <time>2016-02-02T13:36:14Z</time>
      </trkpt>
      <trkpt lat="44.40853" lon="4.20139">
        <ele>199.61</ele>
        <time>2016-02-02T13:36:15Z</time>
      </trkpt>
      <trkpt lat="44.40859" lon="4.20136">
        <ele>199.61</ele>
        <time>2016-02-02T13:36:27Z</time>
      </trkpt>
      <trkpt lat="44.40867" lon="4.20136">
        <ele>199.61</ele>
        <time>2016-02-02T13:36:39Z</time>
      </trkpt>
      <trkpt lat="44.4087" lon="4.20133">
        <ele>199.61</ele>
        <time>2016-02-02T13:36:52Z</time>
      </trkpt>
      <trkpt lat="44.40875" lon="4.2013">
        <ele>196.73</ele>
        <time>2016-02-02T13:37:06Z</time>
      </trkpt>
      <trkpt lat="44.40884" lon="4.20123">
        <ele>195.28</ele>
        <time>2016-02-02T13:37:23Z</time>
      </trkpt>
      <trkpt lat="44.40892" lon="4.2012">
        <ele>193.84</ele>
        <time>2016-02-02T13:37:35Z</time>
      </trkpt>
      <trkpt lat="44.40902" lon="4.20113">
        <ele>193.36</ele>
        <time>2016-02-02T13:37:48Z</time>
      </trkpt>
      <trkpt lat="44.40909" lon="4.20108">
        <ele>192.88</ele>
        <time>2016-02-02T13:38:00Z</time>
      </trkpt>
      <trkpt lat="44.4091" lon="4.20107">
        <ele>194.8</ele>
        <time>2016-02-02T13:38:02Z</time>
      </trkpt>
      <trkpt lat="44.40918" lon="4.201">
        <ele>195.28</ele>
        <time>2016-02-02T13:38:16Z</time>
      </trkpt>
      <trkpt lat="44.40924" lon="4.20089">
        <ele>196.25</ele>
        <time>2016-02-02T13:38:33Z</time>
      </trkpt>
      <trkpt lat="44.40935" lon="4.20079">
        <ele>197.21</ele>
        <time>2016-02-02T13:38:50Z</time>
      </trkpt>
      <trkpt lat="44.40944" lon="4.20066">
        <ele>197.21</ele>
        <time>2016-02-02T13:39:10Z</time>
      </trkpt>
      <trkpt lat="44.4095" lon="4.20065">
        <ele>196.25</ele>
        <time>2016-02-02T13:39:17Z</time>
      </trkpt>
      <trkpt lat="44.4096" lon="4.20063">
        <ele>195.77</ele>
        <time>2016-02-02T13:39:29Z</time>
      </trkpt>
      <trkpt lat="44.40961" lon="4.20062">
        <ele>194.8</ele>
        <time>2016-02-02T13:39:52Z</time>
      </trkpt>
      <trkpt lat="44.4096" lon="4.20049">
        <ele>196.25</ele>
        <time>2016-02-02T13:40:05Z</time>
      </trkpt>
      <trkpt lat="44.40961" lon="4.20049">
        <ele>195.77</ele>
        <time>2016-02-02T13:40:09Z</time>
      </trkpt>
      <trkpt lat="44.40961" lon="4.20048">
        <ele>197.21</ele>
        <time>2016-02-02T13:40:11Z</time>
      </trkpt>
      <trkpt lat="44.40964" lon="4.20042">
        <ele>200.09</ele>
        <time>2016-02-02T13:40:29Z</time>
      </trkpt>
      <trkpt lat="44.4097" lon="4.20025">
        <ele>202.49</ele>
        <time>2016-02-02T13:40:50Z</time>
      </trkpt>
      <trkpt lat="44.4097" lon="4.20019">
        <ele>202.01</ele>
        <time>2016-02-02T13:40:56Z</time>
      </trkpt>
      <trkpt lat="44.4097" lon="4.20018">
        <ele>203.94</ele>
        <time>2016-02-02T13:40:59Z</time>
      </trkpt>
      <trkpt lat="44.4097" lon="4.20018">
        <ele>202.49</ele>
        <time>2016-02-02T13:41:01Z</time>
      </trkpt>
      <trkpt lat="44.40972" lon="4.20015">
        <ele>203.46</ele>
        <time>2016-02-02T13:41:08Z</time>
      </trkpt>
      <trkpt lat="44.40974" lon="4.20013">
        <ele>204.9</ele>
        <time>2016-02-02T13:41:13Z</time>
      </trkpt>
      <trkpt lat="44.40983" lon="4.20002">
        <ele>205.86</ele>
        <time>2016-02-02T13:41:30Z</time>
      </trkpt>
      <trkpt lat="44.40983" lon="4.2">
        <ele>204.42</ele>
        <time>2016-02-02T13:41:32Z</time>
      </trkpt>
      <trkpt lat="44.40984" lon="4.19998">
        <ele>204.42</ele>
        <time>2016-02-02T13:41:34Z</time>
      </trkpt>
      <trkpt lat="44.40985" lon="4.19992">
        <ele>206.34</ele>
        <time>2016-02-02T13:41:36Z</time>
      </trkpt>
      <trkpt lat="44.40988" lon="4.19985">
        <ele>206.34</ele>
        <time>2016-02-02T13:41:42Z</time>
      </trkpt>
      <trkpt lat="44.40991" lon="4.19973">
        <ele>206.82</ele>
        <time>2016-02-02T13:41:53Z</time>
      </trkpt>
      <trkpt lat="44.40994" lon="4.19967">
        <ele>207.3</ele>
        <time>2016-02-02T13:41:58Z</time>
      </trkpt>
      <trkpt lat="44.40997" lon="4.19955">
        <ele>206.34</ele>
        <time>2016-02-02T13:42:07Z</time>
      </trkpt>
      <trkpt lat="44.41004" lon="4.1994">
        <ele>207.3</ele>
        <time>2016-02-02T13:42:20Z</time>
      </trkpt>
      <trkpt lat="44.41006" lon="4.19935">
        <ele>207.78</ele>
        <time>2016-02-02T13:42:26Z</time>
      </trkpt>
      <trkpt lat="44.41009" lon="4.19919">
        <ele>209.22</ele>
        <time>2016-02-02T13:42:40Z</time>
      </trkpt>
      <trkpt lat="44.4101" lon="4.19914">
        <ele>208.26</ele>
        <time>2016-02-02T13:42:45Z</time>
      </trkpt>
      <trkpt lat="44.41011" lon="4.19913">
        <ele>209.7</ele>
        <time>2016-02-02T13:42:47Z</time>
      </trkpt>
      <trkpt lat="44.41013" lon="4.19907">
        <ele>210.19</ele>
        <time>2016-02-02T13:42:53Z</time>
      </trkpt>
      <trkpt lat="44.41018" lon="4.19889">
        <ele>210.67</ele>
        <time>2016-02-02T13:43:09Z</time>
      </trkpt>
      <trkpt lat="44.41022" lon="4.19878">
        <ele>211.63</ele>
        <time>2016-02-02T13:43:21Z</time>
      </trkpt>
      <trkpt lat="44.41023" lon="4.19864">
        <ele>213.07</ele>
        <time>2016-02-02T13:43:34Z</time>
      </trkpt>
      <trkpt lat="44.41026" lon="4.19852">
        <ele>214.03</ele>
        <time>2016-02-02T13:43:45Z</time>
      </trkpt>
      <trkpt lat="44.41028" lon="4.1984">
        <ele>215.95</ele>
        <time>2016-02-02T13:43:58Z</time>
      </trkpt>
      <trkpt lat="44.41031" lon="4.19838">
        <ele>216.43</ele>
        <time>2016-02-02T13:44:02Z</time>
      </trkpt>
      <trkpt lat="44.41036" lon="4.19836">
        <ele>217.88</ele>
        <time>2016-02-02T13:44:14Z</time>
      </trkpt>
      <trkpt lat="44.41038" lon="4.19827">
        <ele>219.32</ele>
        <time>2016-02-02T13:44:34Z</time>
      </trkpt>
      <trkpt lat="44.41041" lon="4.19824">
        <ele>219.8</ele>
        <time>2016-02-02T13:44:38Z</time>
      </trkpt>
      <trkpt lat="44.41041" lon="4.19808">
        <ele>220.28</ele>
        <time>2016-02-02T13:44:50Z</time>
      </trkpt>
      <trkpt lat="44.41041" lon="4.19805">
        <ele>220.28</ele>
        <time>2016-02-02T13:45:09Z</time>
      </trkpt>
      <trkpt lat="44.41039" lon="4.19805">
        <ele>219.32</ele>
        <time>2016-02-02T13:45:30Z</time>
      </trkpt>
      <trkpt lat="44.41029" lon="4.19813">
        <ele>219.32</ele>
        <time>2016-02-02T13:45:59Z</time>
      </trkpt>
      <trkpt lat="44.41039" lon="4.19798">
        <ele>218.36</ele>
        <time>2016-02-02T13:46:30Z</time>
      </trkpt>
      <trkpt lat="44.41039" lon="4.19794">
        <ele>219.8</ele>
        <time>2016-02-02T13:46:33Z</time>
      </trkpt>
      <trkpt lat="44.41042" lon="4.1978">
        <ele>221.72</ele>
        <time>2016-02-02T13:46:46Z</time>
      </trkpt>
      <trkpt lat="44.41048" lon="4.19762">
        <ele>223.16</ele>
        <time>2016-02-02T13:47:04Z</time>
      </trkpt>
      <trkpt lat="44.41049" lon="4.19758">
        <ele>224.12</ele>
        <time>2016-02-02T13:47:07Z</time>
      </trkpt>
      <trkpt lat="44.41054" lon="4.19742">
        <ele>227.01</ele>
        <time>2016-02-02T13:47:23Z</time>
      </trkpt>
      <trkpt lat="44.41054" lon="4.19741">
        <ele>227.01</ele>
        <time>2016-02-02T13:47:24Z</time>
      </trkpt>
      <trkpt lat="44.41064" lon="4.19724">
        <ele>228.45</ele>
        <time>2016-02-02T13:47:41Z</time>
      </trkpt>
      <trkpt lat="44.41076" lon="4.19715">
        <ele>229.41</ele>
        <time>2016-02-02T13:47:57Z</time>
      </trkpt>
      <trkpt lat="44.41079" lon="4.19715">
        <ele>230.85</ele>
        <time>2016-02-02T13:48:01Z</time>
      </trkpt>
      <trkpt lat="44.4109" lon="4.19718">
        <ele>230.85</ele>
        <time>2016-02-02T13:48:17Z</time>
      </trkpt>
      <trkpt lat="44.41103" lon="4.19718">
        <ele>232.3</ele>
        <time>2016-02-02T13:48:35Z</time>
      </trkpt>
      <trkpt lat="44.41115" lon="4.19723">
        <ele>235.18</ele>
        <time>2016-02-02T13:48:52Z</time>
      </trkpt>
      <trkpt lat="44.41116" lon="4.19723">
        <ele>235.18</ele>
        <time>2016-02-02T13:48:53Z</time>
      </trkpt>
      <trkpt lat="44.41119" lon="4.19721">
        <ele>235.66</ele>
        <time>2016-02-02T13:48:59Z</time>
      </trkpt>
      <trkpt lat="44.41136" lon="4.19718">
        <ele>239.02</ele>
        <time>2016-02-02T13:49:21Z</time>
      </trkpt>
      <trkpt lat="44.41149" lon="4.19705">
        <ele>239.51</ele>
        <time>2016-02-02T13:49:38Z</time>
      </trkpt>
      <trkpt lat="44.41164" lon="4.19704">
        <ele>242.39</ele>
        <time>2016-02-02T13:50:00Z</time>
      </trkpt>
      <trkpt lat="44.41168" lon="4.19705">
        <ele>243.35</ele>
        <time>2016-02-02T13:50:09Z</time>
      </trkpt>
      <trkpt lat="44.41171" lon="4.19705">
        <ele>241.91</ele>
        <time>2016-02-02T13:50:13Z</time>
      </trkpt>
      <trkpt lat="44.41173" lon="4.19705">
        <ele>243.35</ele>
        <time>2016-02-02T13:50:15Z</time>
      </trkpt>
      <trkpt lat="44.41188" lon="4.19708">
        <ele>243.83</ele>
        <time>2016-02-02T13:50:33Z</time>
      </trkpt>
      <trkpt lat="44.41193" lon="4.19708">
        <ele>245.75</ele>
        <time>2016-02-02T13:50:40Z</time>
      </trkpt>
      <trkpt lat="44.41207" lon="4.1971">
        <ele>247.68</ele>
        <time>2016-02-02T13:51:01Z</time>
      </trkpt>
      <trkpt lat="44.41218" lon="4.19708">
        <ele>248.64</ele>
        <time>2016-02-02T13:51:12Z</time>
      </trkpt>
      <trkpt lat="44.41238" lon="4.1971">
        <ele>247.68</ele>
        <time>2016-02-02T13:51:33Z</time>
      </trkpt>
      <trkpt lat="44.41239" lon="4.1971">
        <ele>247.2</ele>
        <time>2016-02-02T13:51:34Z</time>
      </trkpt>
      <trkpt lat="44.41244" lon="4.19714">
        <ele>246.72</ele>
        <time>2016-02-02T13:51:53Z</time>
      </trkpt>
      <trkpt lat="44.41246" lon="4.1971">
        <ele>247.68</ele>
        <time>2016-02-02T13:52:00Z</time>
      </trkpt>
      <trkpt lat="44.41247" lon="4.1971">
        <ele>246.23</ele>
        <time>2016-02-02T13:52:08Z</time>
      </trkpt>
      <trkpt lat="44.41249" lon="4.1971">
        <ele>248.16</ele>
        <time>2016-02-02T13:52:10Z</time>
      </trkpt>
      <trkpt lat="44.4126" lon="4.19705">
        <ele>246.72</ele>
        <time>2016-02-02T13:52:25Z</time>
      </trkpt>
      <trkpt lat="44.41259" lon="4.19705">
        <ele>249.6</ele>
        <time>2016-02-02T13:52:28Z</time>
      </trkpt>
      <trkpt lat="44.4126" lon="4.197">
        <ele>250.08</ele>
        <time>2016-02-02T13:52:40Z</time>
      </trkpt>
      <trkpt lat="44.41268" lon="4.19689">
        <ele>251.52</ele>
        <time>2016-02-02T13:52:56Z</time>
      </trkpt>
      <trkpt lat="44.41269" lon="4.19678">
        <ele>252.48</ele>
        <time>2016-02-02T13:53:05Z</time>
      </trkpt>
      <trkpt lat="44.41265" lon="4.19677">
        <ele>253.44</ele>
        <time>2016-02-02T13:53:16Z</time>
      </trkpt>
      <trkpt lat="44.41256" lon="4.19679">
        <ele>253.93</ele>
        <time>2016-02-02T13:53:28Z</time>
      </trkpt>
      <trkpt lat="44.41252" lon="4.19681">
        <ele>254.41</ele>
        <time>2016-02-02T13:53:37Z</time>
      </trkpt>
      <trkpt lat="44.41247" lon="4.19674">
        <ele>256.33</ele>
        <time>2016-02-02T13:54:00Z</time>
      </trkpt>
      <trkpt lat="44.41244" lon="4.19671">
        <ele>255.37</ele>
        <time>2016-02-02T13:54:06Z</time>
      </trkpt>
      <trkpt lat="44.41244" lon="4.19668">
        <ele>256.81</ele>
        <time>2016-02-02T13:54:10Z</time>
      </trkpt>
      <trkpt lat="44.41246" lon="4.19661">
        <ele>257.29</ele>
        <time>2016-02-02T13:54:18Z</time>
      </trkpt>
      <trkpt lat="44.41244" lon="4.19648">
        <ele>257.29</ele>
        <time>2016-02-02T13:54:31Z</time>
      </trkpt>
      <trkpt lat="44.4124" lon="4.19639">
        <ele>257.29</ele>
        <time>2016-02-02T13:54:44Z</time>
      </trkpt>
      <trkpt lat="44.41232" lon="4.19629">
        <ele>257.29</ele>
        <time>2016-02-02T13:54:59Z</time>
      </trkpt>
      <trkpt lat="44.41232" lon="4.19628">
        <ele>255.85</ele>
        <time>2016-02-02T13:55:02Z</time>
      </trkpt>
      <trkpt lat="44.41232" lon="4.19616">
        <ele>254.41</ele>
        <time>2016-02-02T13:55:18Z</time>
      </trkpt>
      <trkpt lat="44.41229" lon="4.19602">
        <ele>252.96</ele>
        <time>2016-02-02T13:55:31Z</time>
      </trkpt>
      <trkpt lat="44.4123" lon="4.19589">
        <ele>251.52</ele>
        <time>2016-02-02T13:55:50Z</time>
      </trkpt>
      <trkpt lat="44.41228" lon="4.19575">
        <ele>249.12</ele>
        <time>2016-02-02T13:56:10Z</time>
      </trkpt>
      <trkpt lat="44.41224" lon="4.19567">
        <ele>247.68</ele>
        <time>2016-02-02T13:56:23Z</time>
      </trkpt>
      <trkpt lat="44.4122" lon="4.19556">
        <ele>245.75</ele>
        <time>2016-02-02T13:56:41Z</time>
      </trkpt>
      <trkpt lat="44.41219" lon="4.19554">
        <ele>245.75</ele>
        <time>2016-02-02T13:56:45Z</time>
      </trkpt>
      <trkpt lat="44.41218" lon="4.19552">
        <ele>244.79</ele>
        <time>2016-02-02T13:56:47Z</time>
      </trkpt>
      <trkpt lat="44.41208" lon="4.19535">
        <ele>242.39</ele>
        <time>2016-02-02T13:57:03Z</time>
      </trkpt>
      <trkpt lat="44.4121" lon="4.19529">
        <ele>244.31</ele>
        <time>2016-02-02T13:57:10Z</time>
      </trkpt>
      <trkpt lat="44.4121" lon="4.19527">
        <ele>242.39</ele>
        <time>2016-02-02T13:57:12Z</time>
      </trkpt>
      <trkpt lat="44.41216" lon="4.19517">
        <ele>245.75</ele>
        <time>2016-02-02T13:57:27Z</time>
      </trkpt>
      <trkpt lat="44.41221" lon="4.19513">
        <ele>246.72</ele>
        <time>2016-02-02T13:57:43Z</time>
      </trkpt>
      <trkpt lat="44.41228" lon="4.19507">
        <ele>248.16</ele>
        <time>2016-02-02T13:57:58Z</time>
      </trkpt>
      <trkpt lat="44.41229" lon="4.19503">
        <ele>249.6</ele>
        <time>2016-02-02T13:58:00Z</time>
      </trkpt>
      <trkpt lat="44.41235" lon="4.19501">
        <ele>252</ele>
        <time>2016-02-02T13:58:18Z</time>
      </trkpt>
      <trkpt lat="44.41241" lon="4.19498">
        <ele>252.48</ele>
        <time>2016-02-02T13:58:28Z</time>
      </trkpt>
      <trkpt lat="44.41241" lon="4.19492">
        <ele>253.44</ele>
        <time>2016-02-02T13:58:36Z</time>
      </trkpt>
      <trkpt lat="44.41241" lon="4.19491">
        <ele>252</ele>
        <time>2016-02-02T13:58:39Z</time>
      </trkpt>
      <trkpt lat="44.41242" lon="4.19489">
        <ele>253.44</ele>
        <time>2016-02-02T13:58:42Z</time>
      </trkpt>
      <trkpt lat="44.41242" lon="4.19478">
        <ele>252</ele>
        <time>2016-02-02T13:58:59Z</time>
      </trkpt>
      <trkpt lat="44.41238" lon="4.19473">
        <ele>252.96</ele>
        <time>2016-02-02T13:59:09Z</time>
      </trkpt>
      <trkpt lat="44.41239" lon="4.19472">
        <ele>251.04</ele>
        <time>2016-02-02T13:59:11Z</time>
      </trkpt>
      <trkpt lat="44.41229" lon="4.19463">
        <ele>252.96</ele>
        <time>2016-02-02T13:59:29Z</time>
      </trkpt>
      <trkpt lat="44.4122" lon="4.19455">
        <ele>253.93</ele>
        <time>2016-02-02T13:59:45Z</time>
      </trkpt>
      <trkpt lat="44.41214" lon="4.19451">
        <ele>254.89</ele>
        <time>2016-02-02T13:59:58Z</time>
      </trkpt>
      <trkpt lat="44.41203" lon="4.19441">
        <ele>255.85</ele>
        <time>2016-02-02T14:00:13Z</time>
      </trkpt>
      <trkpt lat="44.41201" lon="4.1945">
        <ele>254.89</ele>
        <time>2016-02-02T14:00:25Z</time>
      </trkpt>
      <trkpt lat="44.41202" lon="4.19454">
        <ele>254.89</ele>
        <time>2016-02-02T14:00:28Z</time>
      </trkpt>
      <trkpt lat="44.41205" lon="4.19462">
        <ele>254.41</ele>
        <time>2016-02-02T14:00:37Z</time>
      </trkpt>
      <trkpt lat="44.41209" lon="4.19462">
        <ele>254.41</ele>
        <time>2016-02-02T14:00:49Z</time>
      </trkpt>
      <trkpt lat="44.41206" lon="4.1946">
        <ele>254.41</ele>
        <time>2016-02-02T14:00:54Z</time>
      </trkpt>
      <trkpt lat="44.41202" lon="4.19446">
        <ele>254.41</ele>
        <time>2016-02-02T14:01:07Z</time>
      </trkpt>
      <trkpt lat="44.41197" lon="4.19439">
        <ele>254.41</ele>
        <time>2016-02-02T14:01:18Z</time>
      </trkpt>
      <trkpt lat="44.41196" lon="4.19438">
        <ele>254.41</ele>
        <time>2016-02-02T14:01:27Z</time>
      </trkpt>
      <trkpt lat="44.41193" lon="4.19434">
        <ele>254.41</ele>
        <time>2016-02-02T14:01:32Z</time>
      </trkpt>
      <trkpt lat="44.4119" lon="4.19421">
        <ele>255.37</ele>
        <time>2016-02-02T14:01:42Z</time>
      </trkpt>
      <trkpt lat="44.41184" lon="4.19417">
        <ele>255.85</ele>
        <time>2016-02-02T14:01:50Z</time>
      </trkpt>
      <trkpt lat="44.41175" lon="4.19418">
        <ele>256.81</ele>
        <time>2016-02-02T14:02:05Z</time>
      </trkpt>
      <trkpt lat="44.41173" lon="4.19419">
        <ele>256.81</ele>
        <time>2016-02-02T14:02:08Z</time>
      </trkpt>
      <trkpt lat="44.41168" lon="4.19413">
        <ele>257.29</ele>
        <time>2016-02-02T14:02:21Z</time>
      </trkpt>
      <trkpt lat="44.41163" lon="4.19417">
        <ele>259.21</ele>
        <time>2016-02-02T14:02:32Z</time>
      </trkpt>
      <trkpt lat="44.41159" lon="4.19419">
        <ele>259.21</ele>
        <time>2016-02-02T14:02:40Z</time>
      </trkpt>
      <trkpt lat="44.41152" lon="4.19415">
        <ele>261.62</ele>
        <time>2016-02-02T14:02:52Z</time>
      </trkpt>
      <trkpt lat="44.41149" lon="4.19408">
        <ele>261.62</ele>
        <time>2016-02-02T14:03:02Z</time>
      </trkpt>
      <trkpt lat="44.41143" lon="4.19397">
        <ele>261.62</ele>
        <time>2016-02-02T14:03:16Z</time>
      </trkpt>
      <trkpt lat="44.41141" lon="4.19395">
        <ele>261.62</ele>
        <time>2016-02-02T14:03:20Z</time>
      </trkpt>
      <trkpt lat="44.41133" lon="4.19391">
        <ele>261.62</ele>
        <time>2016-02-02T14:03:33Z</time>
      </trkpt>
      <trkpt lat="44.41128" lon="4.19395">
        <ele>263.54</ele>
        <time>2016-02-02T14:03:45Z</time>
      </trkpt>
      <trkpt lat="44.41126" lon="4.19404">
        <ele>265.94</ele>
        <time>2016-02-02T14:03:59Z</time>
      </trkpt>
      <trkpt lat="44.41127" lon="4.19407">
        <ele>268.83</ele>
        <time>2016-02-02T14:04:12Z</time>
      </trkpt>
      <trkpt lat="44.41124" lon="4.19407">
        <ele>264.98</ele>
        <time>2016-02-02T14:04:19Z</time>
      </trkpt>
      <trkpt lat="44.41124" lon="4.19407">
        <ele>268.35</ele>
        <time>2016-02-02T14:04:20Z</time>
      </trkpt>
      <trkpt lat="44.4112" lon="4.19409">
        <ele>268.83</ele>
        <time>2016-02-02T14:04:41Z</time>
      </trkpt>
      <trkpt lat="44.41118" lon="4.19408">
        <ele>269.31</ele>
        <time>2016-02-02T14:05:00Z</time>
      </trkpt>
      <trkpt lat="44.41119" lon="4.19411">
        <ele>269.31</ele>
        <time>2016-02-02T14:05:28Z</time>
      </trkpt>
      <trkpt lat="44.41121" lon="4.19398">
        <ele>269.31</ele>
        <time>2016-02-02T14:06:00Z</time>
      </trkpt>
      <trkpt lat="44.41117" lon="4.194">
        <ele>269.31</ele>
        <time>2016-02-02T14:06:39Z</time>
      </trkpt>
      <trkpt lat="44.41117" lon="4.19402">
        <ele>269.31</ele>
        <time>2016-02-02T14:07:15Z</time>
      </trkpt>
      <trkpt lat="44.41117" lon="4.19391">
        <ele>269.31</ele>
        <time>2016-02-02T14:07:47Z</time>
      </trkpt>
      <trkpt lat="44.41116" lon="4.19402">
        <ele>269.79</ele>
        <time>2016-02-02T14:08:22Z</time>
      </trkpt>
      <trkpt lat="44.41119" lon="4.19408">
        <ele>270.27</ele>
        <time>2016-02-02T14:08:57Z</time>
      </trkpt>
      <trkpt lat="44.41117" lon="4.19409">
        <ele>270.27</ele>
        <time>2016-02-02T14:09:32Z</time>
      </trkpt>
      <trkpt lat="44.41116" lon="4.19405">
        <ele>268.83</ele>
        <time>2016-02-02T14:09:40Z</time>
      </trkpt>
      <trkpt lat="44.41116" lon="4.19404">
        <ele>270.27</ele>
        <time>2016-02-02T14:09:42Z</time>
      </trkpt>
      <trkpt lat="44.41116" lon="4.19404">
        <ele>269.31</ele>
        <time>2016-02-02T14:10:18Z</time>
      </trkpt>
      <trkpt lat="44.41118" lon="4.19401">
        <ele>269.31</ele>
        <time>2016-02-02T14:10:46Z</time>
      </trkpt>
      <trkpt lat="44.41115" lon="4.19406">
        <ele>269.31</ele>
        <time>2016-02-02T14:11:17Z</time>
      </trkpt>
      <trkpt lat="44.41115" lon="4.19405">
        <ele>269.79</ele>
        <time>2016-02-02T14:11:46Z</time>
      </trkpt>
      <trkpt lat="44.41117" lon="4.19409">
        <ele>271.71</ele>
        <time>2016-02-02T14:12:22Z</time>
      </trkpt>
      <trkpt lat="44.41117" lon="4.19408">
        <ele>270.27</ele>
        <time>2016-02-02T14:12:24Z</time>
      </trkpt>
      <trkpt lat="44.41116" lon="4.19406">
        <ele>270.27</ele>
        <time>2016-02-02T14:13:06Z</time>
      </trkpt>
      <trkpt lat="44.41113" lon="4.19402">
        <ele>270.27</ele>
        <time>2016-02-02T14:13:36Z</time>
      </trkpt>
      <trkpt lat="44.41117" lon="4.19406">
        <ele>269.79</ele>
        <time>2016-02-02T14:14:00Z</time>
      </trkpt>
      <trkpt lat="44.41119" lon="4.19404">
        <ele>268.83</ele>
        <time>2016-02-02T14:14:20Z</time>
      </trkpt>
      <trkpt lat="44.4112" lon="4.19405">
        <ele>268.35</ele>
        <time>2016-02-02T14:14:31Z</time>
      </trkpt>
      <trkpt lat="44.4112" lon="4.19405">
        <ele>269.79</ele>
        <time>2016-02-02T14:14:34Z</time>
      </trkpt>
      <trkpt lat="44.4112" lon="4.19405">
        <ele>268.35</ele>
        <time>2016-02-02T14:14:36Z</time>
      </trkpt>
      <trkpt lat="44.4112" lon="4.19404">
        <ele>266.9</ele>
        <time>2016-02-02T14:14:40Z</time>
      </trkpt>
      <trkpt lat="44.41121" lon="4.19405">
        <ele>269.31</ele>
        <time>2016-02-02T14:14:42Z</time>
      </trkpt>
      <trkpt lat="44.41125" lon="4.19405">
        <ele>266.9</ele>
        <time>2016-02-02T14:15:04Z</time>
      </trkpt>
      <trkpt lat="44.41123" lon="4.19406">
        <ele>267.86</ele>
        <time>2016-02-02T14:15:22Z</time>
      </trkpt>
      <trkpt lat="44.41124" lon="4.19406">
        <ele>267.86</ele>
        <time>2016-02-02T14:15:46Z</time>
      </trkpt>
      <trkpt lat="44.41126" lon="4.19397">
        <ele>264.98</ele>
        <time>2016-02-02T14:16:05Z</time>
      </trkpt>
      <trkpt lat="44.41128" lon="4.19389">
        <ele>261.62</ele>
        <time>2016-02-02T14:16:23Z</time>
      </trkpt>
      <trkpt lat="44.41131" lon="4.19384">
        <ele>260.65</ele>
        <time>2016-02-02T14:16:40Z</time>
      </trkpt>
      <trkpt lat="44.4113" lon="4.19378">
        <ele>257.29</ele>
        <time>2016-02-02T14:16:53Z</time>
      </trkpt>
      <trkpt lat="44.41129" lon="4.19378">
        <ele>259.69</ele>
        <time>2016-02-02T14:16:56Z</time>
      </trkpt>
      <trkpt lat="44.41129" lon="4.19377">
        <ele>256.81</ele>
        <time>2016-02-02T14:17:02Z</time>
      </trkpt>
      <trkpt lat="44.41129" lon="4.19377">
        <ele>256.81</ele>
        <time>2016-02-02T14:17:03Z</time>
      </trkpt>
      <trkpt lat="44.4113" lon="4.19377">
        <ele>259.69</ele>
        <time>2016-02-02T14:17:04Z</time>
      </trkpt>
      <trkpt lat="44.4113" lon="4.19378">
        <ele>259.69</ele>
        <time>2016-02-02T14:17:05Z</time>
      </trkpt>
      <trkpt lat="44.4113" lon="4.19378">
        <ele>263.06</ele>
        <time>2016-02-02T14:17:07Z</time>
      </trkpt>
      <trkpt lat="44.41131" lon="4.19377">
        <ele>259.21</ele>
        <time>2016-02-02T14:17:09Z</time>
      </trkpt>
      <trkpt lat="44.41132" lon="4.19376">
        <ele>259.21</ele>
        <time>2016-02-02T14:17:10Z</time>
      </trkpt>
      <trkpt lat="44.4114" lon="4.19368">
        <ele>257.29</ele>
        <time>2016-02-02T14:17:27Z</time>
      </trkpt>
      <trkpt lat="44.41142" lon="4.19368">
        <ele>258.73</ele>
        <time>2016-02-02T14:17:30Z</time>
      </trkpt>
      <trkpt lat="44.41145" lon="4.19368">
        <ele>257.29</ele>
        <time>2016-02-02T14:17:33Z</time>
      </trkpt>
      <trkpt lat="44.41151" lon="4.19371">
        <ele>256.81</ele>
        <time>2016-02-02T14:17:38Z</time>
      </trkpt>
      <trkpt lat="44.41157" lon="4.19373">
        <ele>255.85</ele>
        <time>2016-02-02T14:17:43Z</time>
      </trkpt>
      <trkpt lat="44.41168" lon="4.19369">
        <ele>253.44</ele>
        <time>2016-02-02T14:18:04Z</time>
      </trkpt>
      <trkpt lat="44.41184" lon="4.19365">
        <ele>251.52</ele>
        <time>2016-02-02T14:18:22Z</time>
      </trkpt>
      <trkpt lat="44.41196" lon="4.19355">
        <ele>250.08</ele>
        <time>2016-02-02T14:18:40Z</time>
      </trkpt>
      <trkpt lat="44.41207" lon="4.19347">
        <ele>248.64</ele>
        <time>2016-02-02T14:18:53Z</time>
      </trkpt>
      <trkpt lat="44.41208" lon="4.19344">
        <ele>250.08</ele>
        <time>2016-02-02T14:18:56Z</time>
      </trkpt>
      <trkpt lat="44.41208" lon="4.19341">
        <ele>248.64</ele>
        <time>2016-02-02T14:18:59Z</time>
      </trkpt>
      <trkpt lat="44.41219" lon="4.19324">
        <ele>250.56</ele>
        <time>2016-02-02T14:19:14Z</time>
      </trkpt>
      <trkpt lat="44.41224" lon="4.1931">
        <ele>249.12</ele>
        <time>2016-02-02T14:19:25Z</time>
      </trkpt>
      <trkpt lat="44.4123" lon="4.19296">
        <ele>247.68</ele>
        <time>2016-02-02T14:19:39Z</time>
      </trkpt>
      <trkpt lat="44.4123" lon="4.19276">
        <ele>245.27</ele>
        <time>2016-02-02T14:19:54Z</time>
      </trkpt>
      <trkpt lat="44.41215" lon="4.19264">
        <ele>244.31</ele>
        <time>2016-02-02T14:20:12Z</time>
      </trkpt>
      <trkpt lat="44.41208" lon="4.19248">
        <ele>242.39</ele>
        <time>2016-02-02T14:20:29Z</time>
      </trkpt>
      <trkpt lat="44.41212" lon="4.19234">
        <ele>240.95</ele>
        <time>2016-02-02T14:20:38Z</time>
      </trkpt>
      <trkpt lat="44.41218" lon="4.19229">
        <ele>240.47</ele>
        <time>2016-02-02T14:20:45Z</time>
      </trkpt>
      <trkpt lat="44.41225" lon="4.19228">
        <ele>241.91</ele>
        <time>2016-02-02T14:20:55Z</time>
      </trkpt>
      <trkpt lat="44.4123" lon="4.19229">
        <ele>240.47</ele>
        <time>2016-02-02T14:20:59Z</time>
      </trkpt>
      <trkpt lat="44.41231" lon="4.19229">
        <ele>242.39</ele>
        <time>2016-02-02T14:21:01Z</time>
      </trkpt>
      <trkpt lat="44.41249" lon="4.19239">
        <ele>241.91</ele>
        <time>2016-02-02T14:21:18Z</time>
      </trkpt>
      <trkpt lat="44.41261" lon="4.19243">
        <ele>240.95</ele>
        <time>2016-02-02T14:21:32Z</time>
      </trkpt>
      <trkpt lat="44.41272" lon="4.19235">
        <ele>240.47</ele>
        <time>2016-02-02T14:21:45Z</time>
      </trkpt>
      <trkpt lat="44.41277" lon="4.1923">
        <ele>240.95</ele>
        <time>2016-02-02T14:21:49Z</time>
      </trkpt>
      <trkpt lat="44.41284" lon="4.19214">
        <ele>240.95</ele>
        <time>2016-02-02T14:22:00Z</time>
      </trkpt>
      <trkpt lat="44.41289" lon="4.1921">
        <ele>240.95</ele>
        <time>2016-02-02T14:22:15Z</time>
      </trkpt>
      <trkpt lat="44.4129" lon="4.19211">
        <ele>240.95</ele>
        <time>2016-02-02T14:22:21Z</time>
      </trkpt>
      <trkpt lat="44.413" lon="4.19221">
        <ele>240.95</ele>
        <time>2016-02-02T14:22:33Z</time>
      </trkpt>
      <trkpt lat="44.41319" lon="4.19236">
        <ele>239.51</ele>
        <time>2016-02-02T14:22:50Z</time>
      </trkpt>
      <trkpt lat="44.41337" lon="4.19248">
        <ele>241.43</ele>
        <time>2016-02-02T14:23:07Z</time>
      </trkpt>
      <trkpt lat="44.41343" lon="4.1925">
        <ele>241.43</ele>
        <time>2016-02-02T14:23:14Z</time>
      </trkpt>
      <trkpt lat="44.4135" lon="4.19249">
        <ele>239.99</ele>
        <time>2016-02-02T14:23:21Z</time>
      </trkpt>
      <trkpt lat="44.41355" lon="4.19236">
        <ele>239.99</ele>
        <time>2016-02-02T14:23:33Z</time>
      </trkpt>
      <trkpt lat="44.41357" lon="4.19212">
        <ele>239.99</ele>
        <time>2016-02-02T14:23:51Z</time>
      </trkpt>
      <trkpt lat="44.41364" lon="4.19187">
        <ele>239.02</ele>
        <time>2016-02-02T14:24:07Z</time>
      </trkpt>
      <trkpt lat="44.41365" lon="4.19177">
        <ele>239.02</ele>
        <time>2016-02-02T14:24:15Z</time>
      </trkpt>
      <trkpt lat="44.41367" lon="4.19153">
        <ele>239.02</ele>
        <time>2016-02-02T14:24:30Z</time>
      </trkpt>
      <trkpt lat="44.41367" lon="4.19146">
        <ele>239.99</ele>
        <time>2016-02-02T14:24:35Z</time>
      </trkpt>
      <trkpt lat="44.41368" lon="4.19143">
        <ele>238.54</ele>
        <time>2016-02-02T14:24:37Z</time>
      </trkpt>
      <trkpt lat="44.41374" lon="4.19118">
        <ele>238.54</ele>
        <time>2016-02-02T14:24:53Z</time>
      </trkpt>
      <trkpt lat="44.41375" lon="4.19091">
        <ele>239.02</ele>
        <time>2016-02-02T14:25:09Z</time>
      </trkpt>
      <trkpt lat="44.41375" lon="4.19078">
        <ele>238.54</ele>
        <time>2016-02-02T14:25:18Z</time>
      </trkpt>
      <trkpt lat="44.41375" lon="4.19076">
        <ele>239.99</ele>
        <time>2016-02-02T14:25:20Z</time>
      </trkpt>
      <trkpt lat="44.41375" lon="4.19054">
        <ele>241.43</ele>
        <time>2016-02-02T14:25:36Z</time>
      </trkpt>
      <trkpt lat="44.41375" lon="4.19037">
        <ele>242.39</ele>
        <time>2016-02-02T14:25:53Z</time>
      </trkpt>
      <trkpt lat="44.41376" lon="4.19017">
        <ele>244.31</ele>
        <time>2016-02-02T14:26:08Z</time>
      </trkpt>
      <trkpt lat="44.41381" lon="4.19002">
        <ele>245.27</ele>
        <time>2016-02-02T14:26:21Z</time>
      </trkpt>
      <trkpt lat="44.41389" lon="4.18994">
        <ele>246.72</ele>
        <time>2016-02-02T14:26:37Z</time>
      </trkpt>
      <trkpt lat="44.41405" lon="4.18985">
        <ele>248.16</ele>
        <time>2016-02-02T14:26:56Z</time>
      </trkpt>
      <trkpt lat="44.41413" lon="4.1897">
        <ele>249.6</ele>
        <time>2016-02-02T14:27:10Z</time>
      </trkpt>
      <trkpt lat="44.41417" lon="4.18966">
        <ele>248.64</ele>
        <time>2016-02-02T14:27:15Z</time>
      </trkpt>
      <trkpt lat="44.41421" lon="4.1896">
        <ele>250.08</ele>
        <time>2016-02-02T14:27:21Z</time>
      </trkpt>
      <trkpt lat="44.41424" lon="4.18959">
        <ele>250.08</ele>
        <time>2016-02-02T14:27:23Z</time>
      </trkpt>
      <trkpt lat="44.41434" lon="4.18946">
        <ele>251.04</ele>
        <time>2016-02-02T14:27:35Z</time>
      </trkpt>
      <trkpt lat="44.41434" lon="4.18945">
        <ele>251.04</ele>
        <time>2016-02-02T14:27:36Z</time>
      </trkpt>
      <trkpt lat="44.41445" lon="4.18937">
        <ele>252.48</ele>
        <time>2016-02-02T14:27:49Z</time>
      </trkpt>
      <trkpt lat="44.41463" lon="4.18936">
        <ele>252</ele>
        <time>2016-02-02T14:28:08Z</time>
      </trkpt>
      <trkpt lat="44.41479" lon="4.18936">
        <ele>251.52</ele>
        <time>2016-02-02T14:28:26Z</time>
      </trkpt>
      <trkpt lat="44.41493" lon="4.18937">
        <ele>252.96</ele>
        <time>2016-02-02T14:28:44Z</time>
      </trkpt>
      <trkpt lat="44.41496" lon="4.18934">
        <ele>252.96</ele>
        <time>2016-02-02T14:28:45Z</time>
      </trkpt>
      <trkpt lat="44.41512" lon="4.18927">
        <ele>252.96</ele>
        <time>2016-02-02T14:29:02Z</time>
      </trkpt>
      <trkpt lat="44.41511" lon="4.18922">
        <ele>251.52</ele>
        <time>2016-02-02T14:29:05Z</time>
      </trkpt>
      <trkpt lat="44.41506" lon="4.18908">
        <ele>251.04</ele>
        <time>2016-02-02T14:29:17Z</time>
      </trkpt>
      <trkpt lat="44.41509" lon="4.18907">
        <ele>250.56</ele>
        <time>2016-02-02T14:29:22Z</time>
      </trkpt>
      <trkpt lat="44.4152" lon="4.18904">
        <ele>249.6</ele>
        <time>2016-02-02T14:29:36Z</time>
      </trkpt>
      <trkpt lat="44.41525" lon="4.18902">
        <ele>249.12</ele>
        <time>2016-02-02T14:29:44Z</time>
      </trkpt>
      <trkpt lat="44.4154" lon="4.18897">
        <ele>249.12</ele>
        <time>2016-02-02T14:30:01Z</time>
      </trkpt>
      <trkpt lat="44.41554" lon="4.18907">
        <ele>249.12</ele>
        <time>2016-02-02T14:30:13Z</time>
      </trkpt>
      <trkpt lat="44.41569" lon="4.18891">
        <ele>251.04</ele>
        <time>2016-02-02T14:30:31Z</time>
      </trkpt>
      <trkpt lat="44.41587" lon="4.18876">
        <ele>251.04</ele>
        <time>2016-02-02T14:30:48Z</time>
      </trkpt>
      <trkpt lat="44.416" lon="4.18872">
        <ele>251.04</ele>
        <time>2016-02-02T14:30:59Z</time>
      </trkpt>
      <trkpt lat="44.41611" lon="4.18872">
        <ele>251.04</ele>
        <time>2016-02-02T14:31:10Z</time>
      </trkpt>
      <trkpt lat="44.41626" lon="4.18868">
        <ele>249.12</ele>
        <time>2016-02-02T14:31:28Z</time>
      </trkpt>
      <trkpt lat="44.4163" lon="4.18854">
        <ele>250.08</ele>
        <time>2016-02-02T14:31:39Z</time>
      </trkpt>
      <trkpt lat="44.41628" lon="4.18848">
        <ele>249.12</ele>
        <time>2016-02-02T14:31:45Z</time>
      </trkpt>
      <trkpt lat="44.41628" lon="4.1884">
        <ele>250.08</ele>
        <time>2016-02-02T14:31:52Z</time>
      </trkpt>
      <trkpt lat="44.41623" lon="4.18812">
        <ele>249.12</ele>
        <time>2016-02-02T14:32:13Z</time>
      </trkpt>
      <trkpt lat="44.41619" lon="4.18788">
        <ele>249.12</ele>
        <time>2016-02-02T14:32:30Z</time>
      </trkpt>
      <trkpt lat="44.41619" lon="4.18758">
        <ele>250.56</ele>
        <time>2016-02-02T14:32:50Z</time>
      </trkpt>
      <trkpt lat="44.41624" lon="4.18727">
        <ele>251.52</ele>
        <time>2016-02-02T14:33:12Z</time>
      </trkpt>
      <trkpt lat="44.41624" lon="4.18724">
        <ele>252.96</ele>
        <time>2016-02-02T14:33:14Z</time>
      </trkpt>
      <trkpt lat="44.41629" lon="4.187">
        <ele>254.41</ele>
        <time>2016-02-02T14:33:31Z</time>
      </trkpt>
      <trkpt lat="44.4163" lon="4.18699">
        <ele>254.41</ele>
        <time>2016-02-02T14:33:32Z</time>
      </trkpt>
      <trkpt lat="44.41633" lon="4.18678">
        <ele>253.93</ele>
        <time>2016-02-02T14:33:48Z</time>
      </trkpt>
      <trkpt lat="44.41633" lon="4.18675">
        <ele>255.37</ele>
        <time>2016-02-02T14:33:50Z</time>
      </trkpt>
      <trkpt lat="44.41633" lon="4.18672">
        <ele>254.41</ele>
        <time>2016-02-02T14:33:52Z</time>
      </trkpt>
      <trkpt lat="44.41633" lon="4.18666">
        <ele>255.37</ele>
        <time>2016-02-02T14:33:55Z</time>
      </trkpt>
      <trkpt lat="44.41629" lon="4.18652">
        <ele>255.37</ele>
        <time>2016-02-02T14:34:05Z</time>
      </trkpt>
      <trkpt lat="44.41613" lon="4.18639">
        <ele>254.89</ele>
        <time>2016-02-02T14:34:23Z</time>
      </trkpt>
      <trkpt lat="44.41599" lon="4.18624">
        <ele>253.93</ele>
        <time>2016-02-02T14:34:41Z</time>
      </trkpt>
      <trkpt lat="44.41594" lon="4.18618">
        <ele>253.93</ele>
        <time>2016-02-02T14:34:57Z</time>
      </trkpt>
      <trkpt lat="44.41588" lon="4.18613">
        <ele>252.48</ele>
        <time>2016-02-02T14:35:03Z</time>
      </trkpt>
      <trkpt lat="44.41572" lon="4.18605">
        <ele>252.48</ele>
        <time>2016-02-02T14:35:18Z</time>
      </trkpt>
      <trkpt lat="44.41553" lon="4.18596">
        <ele>251.52</ele>
        <time>2016-02-02T14:35:34Z</time>
      </trkpt>
      <trkpt lat="44.41535" lon="4.18588">
        <ele>250.08</ele>
        <time>2016-02-02T14:35:51Z</time>
      </trkpt>
      <trkpt lat="44.41517" lon="4.18585">
        <ele>249.6</ele>
        <time>2016-02-02T14:36:08Z</time>
      </trkpt>
      <trkpt lat="44.41501" lon="4.18587">
        <ele>247.68</ele>
        <time>2016-02-02T14:36:23Z</time>
      </trkpt>
      <trkpt lat="44.41481" lon="4.18584">
        <ele>245.75</ele>
        <time>2016-02-02T14:36:42Z</time>
      </trkpt>
      <trkpt lat="44.41477" lon="4.18583">
        <ele>245.27</ele>
        <time>2016-02-02T14:36:47Z</time>
      </trkpt>
      <trkpt lat="44.41465" lon="4.18569">
        <ele>243.35</ele>
        <time>2016-02-02T14:37:03Z</time>
      </trkpt>
      <trkpt lat="44.41451" lon="4.1855">
        <ele>241.91</ele>
        <time>2016-02-02T14:37:21Z</time>
      </trkpt>
      <trkpt lat="44.41442" lon="4.18526">
        <ele>241.91</ele>
        <time>2016-02-02T14:37:40Z</time>
      </trkpt>
      <trkpt lat="44.41442" lon="4.18521">
        <ele>243.35</ele>
        <time>2016-02-02T14:37:43Z</time>
      </trkpt>
      <trkpt lat="44.41442" lon="4.18517">
        <ele>243.35</ele>
        <time>2016-02-02T14:37:45Z</time>
      </trkpt>
      <trkpt lat="44.41441" lon="4.18504">
        <ele>244.31</ele>
        <time>2016-02-02T14:37:53Z</time>
      </trkpt>
      <trkpt lat="44.41436" lon="4.18491">
        <ele>244.31</ele>
        <time>2016-02-02T14:38:03Z</time>
      </trkpt>
      <trkpt lat="44.4143" lon="4.18471">
        <ele>244.79</ele>
        <time>2016-02-02T14:38:15Z</time>
      </trkpt>
      <trkpt lat="44.41426" lon="4.18457">
        <ele>244.79</ele>
        <time>2016-02-02T14:38:26Z</time>
      </trkpt>
      <trkpt lat="44.41421" lon="4.18434">
        <ele>244.79</ele>
        <time>2016-02-02T14:38:41Z</time>
      </trkpt>
      <trkpt lat="44.41418" lon="4.1842">
        <ele>243.35</ele>
        <time>2016-02-02T14:38:51Z</time>
      </trkpt>
      <trkpt lat="44.41408" lon="4.18396">
        <ele>242.87</ele>
        <time>2016-02-02T14:39:10Z</time>
      </trkpt>
      <trkpt lat="44.41401" lon="4.18385">
        <ele>240.95</ele>
        <time>2016-02-02T14:39:20Z</time>
      </trkpt>
      <trkpt lat="44.41399" lon="4.18383">
        <ele>242.39</ele>
        <time>2016-02-02T14:39:23Z</time>
      </trkpt>
      <trkpt lat="44.41386" lon="4.18375">
        <ele>241.91</ele>
        <time>2016-02-02T14:39:36Z</time>
      </trkpt>
      <trkpt lat="44.41368" lon="4.1836">
        <ele>239.99</ele>
        <time>2016-02-02T14:39:54Z</time>
      </trkpt>
      <trkpt lat="44.41353" lon="4.18343">
        <ele>238.06</ele>
        <time>2016-02-02T14:40:11Z</time>
      </trkpt>
      <trkpt lat="44.41337" lon="4.18328">
        <ele>236.14</ele>
        <time>2016-02-02T14:40:29Z</time>
      </trkpt>
      <trkpt lat="44.41329" lon="4.18323">
        <ele>234.7</ele>
        <time>2016-02-02T14:40:36Z</time>
      </trkpt>
      <trkpt lat="44.41316" lon="4.1832">
        <ele>233.74</ele>
        <time>2016-02-02T14:40:48Z</time>
      </trkpt>
      <trkpt lat="44.41308" lon="4.18331">
        <ele>233.74</ele>
        <time>2016-02-02T14:40:58Z</time>
      </trkpt>
      <trkpt lat="44.41303" lon="4.18341">
        <ele>233.74</ele>
        <time>2016-02-02T14:41:05Z</time>
      </trkpt>
      <trkpt lat="44.41298" lon="4.18347">
        <ele>233.74</ele>
        <time>2016-02-02T14:41:10Z</time>
      </trkpt>
      <trkpt lat="44.41291" lon="4.18362">
        <ele>233.74</ele>
        <time>2016-02-02T14:41:22Z</time>
      </trkpt>
      <trkpt lat="44.41288" lon="4.18366">
        <ele>235.66</ele>
        <time>2016-02-02T14:41:25Z</time>
      </trkpt>
      <trkpt lat="44.41278" lon="4.18378">
        <ele>235.66</ele>
        <time>2016-02-02T14:41:35Z</time>
      </trkpt>
      <trkpt lat="44.41271" lon="4.18394">
        <ele>235.66</ele>
        <time>2016-02-02T14:41:47Z</time>
      </trkpt>
      <trkpt lat="44.41267" lon="4.18402">
        <ele>235.66</ele>
        <time>2016-02-02T14:41:54Z</time>
      </trkpt>
      <trkpt lat="44.41258" lon="4.18421">
        <ele>235.18</ele>
        <time>2016-02-02T14:42:07Z</time>
      </trkpt>
      <trkpt lat="44.4125" lon="4.18439">
        <ele>234.22</ele>
        <time>2016-02-02T14:42:18Z</time>
      </trkpt>
      <trkpt lat="44.41248" lon="4.18442">
        <ele>234.22</ele>
        <time>2016-02-02T14:42:23Z</time>
      </trkpt>
      <trkpt lat="44.41245" lon="4.18467">
        <ele>232.78</ele>
        <time>2016-02-02T14:42:37Z</time>
      </trkpt>
      <trkpt lat="44.41244" lon="4.18476">
        <ele>232.78</ele>
        <time>2016-02-02T14:42:43Z</time>
      </trkpt>
      <trkpt lat="44.41247" lon="4.18486">
        <ele>232.3</ele>
        <time>2016-02-02T14:42:51Z</time>
      </trkpt>
      <trkpt lat="44.41254" lon="4.1851">
        <ele>231.33</ele>
        <time>2016-02-02T14:43:08Z</time>
      </trkpt>
      <trkpt lat="44.41264" lon="4.18533">
        <ele>229.89</ele>
        <time>2016-02-02T14:43:26Z</time>
      </trkpt>
      <trkpt lat="44.41263" lon="4.18535">
        <ele>229.89</ele>
        <time>2016-02-02T14:43:27Z</time>
      </trkpt>
      <trkpt lat="44.41263" lon="4.18553">
        <ele>228.93</ele>
        <time>2016-02-02T14:43:39Z</time>
      </trkpt>
      <trkpt lat="44.41268" lon="4.1856">
        <ele>228.93</ele>
        <time>2016-02-02T14:43:46Z</time>
      </trkpt>
      <trkpt lat="44.41271" lon="4.18567">
        <ele>228.93</ele>
        <time>2016-02-02T14:43:50Z</time>
      </trkpt>
      <trkpt lat="44.41277" lon="4.18572">
        <ele>228.45</ele>
        <time>2016-02-02T14:43:57Z</time>
      </trkpt>
      <trkpt lat="44.41289" lon="4.18575">
        <ele>227.97</ele>
        <time>2016-02-02T14:44:14Z</time>
      </trkpt>
      <trkpt lat="44.4129" lon="4.18579">
        <ele>227.97</ele>
        <time>2016-02-02T14:44:17Z</time>
      </trkpt>
      <trkpt lat="44.41293" lon="4.18587">
        <ele>228.45</ele>
        <time>2016-02-02T14:44:23Z</time>
      </trkpt>
      <trkpt lat="44.41292" lon="4.18591">
        <ele>227.01</ele>
        <time>2016-02-02T14:44:26Z</time>
      </trkpt>
      <trkpt lat="44.41293" lon="4.1859">
        <ele>227.01</ele>
        <time>2016-02-02T14:44:33Z</time>
      </trkpt>
      <trkpt lat="44.41286" lon="4.18576">
        <ele>228.45</ele>
        <time>2016-02-02T14:44:45Z</time>
      </trkpt>
      <trkpt lat="44.41281" lon="4.18572">
        <ele>228.45</ele>
        <time>2016-02-02T14:44:51Z</time>
      </trkpt>
      <trkpt lat="44.41272" lon="4.18561">
        <ele>229.41</ele>
        <time>2016-02-02T14:45:03Z</time>
      </trkpt>
      <trkpt lat="44.41269" lon="4.18555">
        <ele>229.41</ele>
        <time>2016-02-02T14:45:08Z</time>
      </trkpt>
      <trkpt lat="44.41268" lon="4.18552">
        <ele>229.41</ele>
        <time>2016-02-02T14:45:10Z</time>
      </trkpt>
      <trkpt lat="44.41258" lon="4.18544">
        <ele>229.89</ele>
        <time>2016-02-02T14:45:22Z</time>
      </trkpt>
      <trkpt lat="44.41249" lon="4.1853">
        <ele>229.89</ele>
        <time>2016-02-02T14:45:36Z</time>
      </trkpt>
      <trkpt lat="44.41247" lon="4.18508">
        <ele>229.89</ele>
        <time>2016-02-02T14:45:53Z</time>
      </trkpt>
      <trkpt lat="44.41244" lon="4.18502">
        <ele>229.89</ele>
        <time>2016-02-02T14:45:56Z</time>
      </trkpt>
      <trkpt lat="44.41243" lon="4.18497">
        <ele>229.89</ele>
        <time>2016-02-02T14:46:00Z</time>
      </trkpt>
      <trkpt lat="44.4124" lon="4.18493">
        <ele>228.45</ele>
        <time>2016-02-02T14:46:03Z</time>
      </trkpt>
      <trkpt lat="44.41237" lon="4.18488">
        <ele>228.45</ele>
        <time>2016-02-02T14:46:07Z</time>
      </trkpt>
      <trkpt lat="44.41218" lon="4.18482">
        <ele>227.49</ele>
        <time>2016-02-02T14:46:24Z</time>
      </trkpt>
      <trkpt lat="44.41216" lon="4.18483">
        <ele>227.49</ele>
        <time>2016-02-02T14:46:33Z</time>
      </trkpt>
      <trkpt lat="44.41215" lon="4.18482">
        <ele>227.01</ele>
        <time>2016-02-02T14:46:36Z</time>
      </trkpt>
      <trkpt lat="44.41205" lon="4.18473">
        <ele>226.53</ele>
        <time>2016-02-02T14:46:46Z</time>
      </trkpt>
      <trkpt lat="44.41204" lon="4.18472">
        <ele>226.53</ele>
        <time>2016-02-02T14:46:47Z</time>
      </trkpt>
      <trkpt lat="44.41195" lon="4.18465">
        <ele>226.53</ele>
        <time>2016-02-02T14:46:57Z</time>
      </trkpt>
      <trkpt lat="44.41181" lon="4.18459">
        <ele>225.09</ele>
        <time>2016-02-02T14:47:08Z</time>
      </trkpt>
      <trkpt lat="44.41176" lon="4.18454">
        <ele>226.05</ele>
        <time>2016-02-02T14:47:13Z</time>
      </trkpt>
      <trkpt lat="44.41159" lon="4.18439">
        <ele>223.64</ele>
        <time>2016-02-02T14:47:31Z</time>
      </trkpt>
      <trkpt lat="44.41145" lon="4.18429">
        <ele>223.64</ele>
        <time>2016-02-02T14:47:44Z</time>
      </trkpt>
      <trkpt lat="44.4113" lon="4.18415">
        <ele>222.2</ele>
        <time>2016-02-02T14:48:01Z</time>
      </trkpt>
      <trkpt lat="44.41127" lon="4.18408">
        <ele>222.2</ele>
        <time>2016-02-02T14:48:06Z</time>
      </trkpt>
      <trkpt lat="44.4112" lon="4.18398">
        <ele>221.72</ele>
        <time>2016-02-02T14:48:19Z</time>
      </trkpt>
      <trkpt lat="44.41115" lon="4.18401">
        <ele>221.72</ele>
        <time>2016-02-02T14:48:26Z</time>
      </trkpt>
      <trkpt lat="44.41101" lon="4.1841">
        <ele>221.24</ele>
        <time>2016-02-02T14:48:41Z</time>
      </trkpt>
      <trkpt lat="44.41097" lon="4.18414">
        <ele>220.76</ele>
        <time>2016-02-02T14:48:46Z</time>
      </trkpt>
      <trkpt lat="44.41089" lon="4.18425">
        <ele>219.32</ele>
        <time>2016-02-02T14:49:02Z</time>
      </trkpt>
      <trkpt lat="44.41075" lon="4.18434">
        <ele>218.84</ele>
        <time>2016-02-02T14:49:18Z</time>
      </trkpt>
      <trkpt lat="44.4107" lon="4.18435">
        <ele>211.15</ele>
        <time>2016-02-02T14:49:26Z</time>
      </trkpt>
      <trkpt lat="44.4107" lon="4.18434">
        <ele>218.84</ele>
        <time>2016-02-02T14:49:27Z</time>
      </trkpt>
      <trkpt lat="44.4107" lon="4.18434">
        <ele>225.09</ele>
        <time>2016-02-02T14:49:28Z</time>
      </trkpt>
      <trkpt lat="44.4107" lon="4.18434">
        <ele>218.36</ele>
        <time>2016-02-02T14:49:29Z</time>
      </trkpt>
      <trkpt lat="44.41061" lon="4.18439">
        <ele>217.88</ele>
        <time>2016-02-02T14:49:41Z</time>
      </trkpt>
      <trkpt lat="44.41045" lon="4.18447">
        <ele>217.88</ele>
        <time>2016-02-02T14:49:59Z</time>
      </trkpt>
      <trkpt lat="44.41031" lon="4.18448">
        <ele>215.95</ele>
        <time>2016-02-02T14:50:14Z</time>
      </trkpt>
      <trkpt lat="44.4102" lon="4.18447">
        <ele>215.95</ele>
        <time>2016-02-02T14:50:30Z</time>
      </trkpt>
      <trkpt lat="44.41006" lon="4.18438">
        <ele>215.47</ele>
        <time>2016-02-02T14:50:49Z</time>
      </trkpt>
      <trkpt lat="44.41004" lon="4.18436">
        <ele>217.4</ele>
        <time>2016-02-02T14:50:54Z</time>
      </trkpt>
      <trkpt lat="44.41007" lon="4.18435">
        <ele>221.24</ele>
        <time>2016-02-02T14:51:07Z</time>
      </trkpt>
      <trkpt lat="44.41008" lon="4.18435">
        <ele>215.47</ele>
        <time>2016-02-02T14:51:08Z</time>
      </trkpt>
      <trkpt lat="44.41008" lon="4.18435">
        <ele>219.8</ele>
        <time>2016-02-02T14:51:09Z</time>
      </trkpt>
      <trkpt lat="44.4101" lon="4.18433">
        <ele>219.8</ele>
        <time>2016-02-02T14:51:18Z</time>
      </trkpt>
      <trkpt lat="44.41007" lon="4.18428">
        <ele>219.8</ele>
        <time>2016-02-02T14:51:33Z</time>
      </trkpt>
      <trkpt lat="44.41" lon="4.18428">
        <ele>214.99</ele>
        <time>2016-02-02T14:51:42Z</time>
      </trkpt>
      <trkpt lat="44.41" lon="4.18428">
        <ele>222.68</ele>
        <time>2016-02-02T14:51:43Z</time>
      </trkpt>
      <trkpt lat="44.40999" lon="4.18427">
        <ele>218.36</ele>
        <time>2016-02-02T14:51:44Z</time>
      </trkpt>
      <trkpt lat="44.40994" lon="4.18422">
        <ele>218.84</ele>
        <time>2016-02-02T14:52:02Z</time>
      </trkpt>
      <trkpt lat="44.40993" lon="4.18417">
        <ele>217.88</ele>
        <time>2016-02-02T14:52:19Z</time>
      </trkpt>
      <trkpt lat="44.40993" lon="4.1842">
        <ele>217.88</ele>
        <time>2016-02-02T14:52:40Z</time>
      </trkpt>
      <trkpt lat="44.40993" lon="4.18421">
        <ele>217.88</ele>
        <time>2016-02-02T14:53:03Z</time>
      </trkpt>
      <trkpt lat="44.40995" lon="4.18423">
        <ele>218.84</ele>
        <time>2016-02-02T14:53:15Z</time>
      </trkpt>
      <trkpt lat="44.40997" lon="4.18427">
        <ele>218.84</ele>
        <time>2016-02-02T14:53:30Z</time>
      </trkpt>
      <trkpt lat="44.41" lon="4.18429">
        <ele>218.84</ele>
        <time>2016-02-02T14:53:40Z</time>
      </trkpt>
      <trkpt lat="44.41003" lon="4.18427">
        <ele>219.8</ele>
        <time>2016-02-02T14:53:46Z</time>
      </trkpt>
      <trkpt lat="44.41005" lon="4.18428">
        <ele>219.8</ele>
        <time>2016-02-02T14:53:48Z</time>
      </trkpt>
      <trkpt lat="44.4101" lon="4.18431">
        <ele>219.8</ele>
        <time>2016-02-02T14:53:56Z</time>
      </trkpt>
      <trkpt lat="44.41019" lon="4.18434">
        <ele>219.8</ele>
        <time>2016-02-02T14:54:05Z</time>
      </trkpt>
      <trkpt lat="44.4103" lon="4.1843">
        <ele>220.28</ele>
        <time>2016-02-02T14:54:16Z</time>
      </trkpt>
      <trkpt lat="44.41032" lon="4.18429">
        <ele>220.28</ele>
        <time>2016-02-02T14:54:23Z</time>
      </trkpt>
      <trkpt lat="44.41034" lon="4.1843">
        <ele>220.28</ele>
        <time>2016-02-02T14:54:25Z</time>
      </trkpt>
      <trkpt lat="44.41036" lon="4.18429">
        <ele>220.28</ele>
        <time>2016-02-02T14:54:27Z</time>
      </trkpt>
      <trkpt lat="44.41032" lon="4.1843">
        <ele>220.76</ele>
        <time>2016-02-02T14:54:34Z</time>
      </trkpt>
      <trkpt lat="44.41029" lon="4.18433">
        <ele>220.76</ele>
        <time>2016-02-02T14:54:37Z</time>
      </trkpt>
      <trkpt lat="44.41022" lon="4.18435">
        <ele>220.76</ele>
        <time>2016-02-02T14:54:45Z</time>
      </trkpt>
      <trkpt lat="44.41011" lon="4.18431">
        <ele>220.76</ele>
        <time>2016-02-02T14:54:57Z</time>
      </trkpt>
      <trkpt lat="44.41005" lon="4.18429">
        <ele>220.76</ele>
        <time>2016-02-02T14:55:10Z</time>
      </trkpt>
      <trkpt lat="44.41003" lon="4.18421">
        <ele>221.72</ele>
        <time>2016-02-02T14:55:20Z</time>
      </trkpt>
      <trkpt lat="44.41003" lon="4.18411">
        <ele>222.68</ele>
        <time>2016-02-02T14:55:31Z</time>
      </trkpt>
      <trkpt lat="44.41005" lon="4.1841">
        <ele>223.64</ele>
        <time>2016-02-02T14:55:42Z</time>
      </trkpt>
      <trkpt lat="44.41009" lon="4.18409">
        <ele>224.61</ele>
        <time>2016-02-02T14:55:54Z</time>
      </trkpt>
      <trkpt lat="44.4101" lon="4.18405">
        <ele>225.09</ele>
        <time>2016-02-02T14:56:00Z</time>
      </trkpt>
      <trkpt lat="44.41011" lon="4.18392">
        <ele>225.09</ele>
        <time>2016-02-02T14:56:14Z</time>
      </trkpt>
      <trkpt lat="44.4101" lon="4.18388">
        <ele>225.57</ele>
        <time>2016-02-02T14:56:29Z</time>
      </trkpt>
      <trkpt lat="44.41009" lon="4.18386">
        <ele>224.61</ele>
        <time>2016-02-02T14:56:44Z</time>
      </trkpt>
      <trkpt lat="44.41012" lon="4.1839">
        <ele>224.61</ele>
        <time>2016-02-02T14:56:59Z</time>
      </trkpt>
      <trkpt lat="44.41013" lon="4.18391">
        <ele>226.05</ele>
        <time>2016-02-02T14:57:03Z</time>
      </trkpt>
      <trkpt lat="44.41019" lon="4.18394">
        <ele>226.05</ele>
        <time>2016-02-02T14:57:13Z</time>
      </trkpt>
      <trkpt lat="44.41024" lon="4.18392">
        <ele>226.53</ele>
        <time>2016-02-02T14:57:20Z</time>
      </trkpt>
      <trkpt lat="44.41022" lon="4.1838">
        <ele>227.01</ele>
        <time>2016-02-02T14:57:32Z</time>
      </trkpt>
      <trkpt lat="44.41023" lon="4.18367">
        <ele>227.49</ele>
        <time>2016-02-02T14:57:44Z</time>
      </trkpt>
      <trkpt lat="44.41029" lon="4.18356">
        <ele>228.93</ele>
        <time>2016-02-02T14:57:56Z</time>
      </trkpt>
      <trkpt lat="44.41033" lon="4.18339">
        <ele>230.37</ele>
        <time>2016-02-02T14:58:09Z</time>
      </trkpt>
      <trkpt lat="44.41035" lon="4.18328">
        <ele>231.81</ele>
        <time>2016-02-02T14:58:20Z</time>
      </trkpt>
      <trkpt lat="44.41039" lon="4.18311">
        <ele>233.74</ele>
        <time>2016-02-02T14:58:35Z</time>
      </trkpt>
      <trkpt lat="44.41041" lon="4.18304">
        <ele>233.26</ele>
        <time>2016-02-02T14:58:48Z</time>
      </trkpt>
      <trkpt lat="44.41042" lon="4.18304">
        <ele>233.26</ele>
        <time>2016-02-02T14:58:53Z</time>
      </trkpt>
      <trkpt lat="44.41044" lon="4.18303">
        <ele>233.26</ele>
        <time>2016-02-02T14:58:55Z</time>
      </trkpt>
      <trkpt lat="44.41053" lon="4.18285">
        <ele>233.74</ele>
        <time>2016-02-02T14:59:08Z</time>
      </trkpt>
      <trkpt lat="44.41056" lon="4.18279">
        <ele>234.7</ele>
        <time>2016-02-02T14:59:21Z</time>
      </trkpt>
      <trkpt lat="44.41061" lon="4.18273">
        <ele>236.62</ele>
        <time>2016-02-02T14:59:33Z</time>
      </trkpt>
      <trkpt lat="44.41063" lon="4.18265">
        <ele>237.58</ele>
        <time>2016-02-02T14:59:42Z</time>
      </trkpt>
      <trkpt lat="44.41063" lon="4.18251">
        <ele>237.58</ele>
        <time>2016-02-02T14:59:54Z</time>
      </trkpt>
      <trkpt lat="44.41064" lon="4.1825">
        <ele>237.58</ele>
        <time>2016-02-02T14:59:55Z</time>
      </trkpt>
      <trkpt lat="44.41066" lon="4.18248">
        <ele>236.14</ele>
        <time>2016-02-02T14:59:57Z</time>
      </trkpt>
      <trkpt lat="44.41067" lon="4.18247">
        <ele>236.14</ele>
        <time>2016-02-02T14:59:59Z</time>
      </trkpt>
      <trkpt lat="44.41069" lon="4.18243">
        <ele>236.14</ele>
        <time>2016-02-02T15:00:13Z</time>
      </trkpt>
      <trkpt lat="44.4107" lon="4.18243">
        <ele>236.14</ele>
        <time>2016-02-02T15:00:27Z</time>
      </trkpt>
      <trkpt lat="44.41069" lon="4.18243">
        <ele>236.14</ele>
        <time>2016-02-02T15:00:44Z</time>
      </trkpt>
      <trkpt lat="44.41068" lon="4.18242">
        <ele>236.14</ele>
        <time>2016-02-02T15:01:09Z</time>
      </trkpt>
      <trkpt lat="44.41071" lon="4.18235">
        <ele>238.06</ele>
        <time>2016-02-02T15:01:22Z</time>
      </trkpt>
      <trkpt lat="44.41077" lon="4.18221">
        <ele>238.06</ele>
        <time>2016-02-02T15:01:36Z</time>
      </trkpt>
      <trkpt lat="44.41078" lon="4.1822">
        <ele>236.14</ele>
        <time>2016-02-02T15:01:39Z</time>
      </trkpt>
      <trkpt lat="44.41078" lon="4.18215">
        <ele>237.58</ele>
        <time>2016-02-02T15:01:52Z</time>
      </trkpt>
      <trkpt lat="44.41078" lon="4.18213">
        <ele>237.58</ele>
        <time>2016-02-02T15:01:54Z</time>
      </trkpt>
      <trkpt lat="44.41082" lon="4.18207">
        <ele>237.58</ele>
        <time>2016-02-02T15:02:01Z</time>
      </trkpt>
      <trkpt lat="44.41092" lon="4.18199">
        <ele>238.54</ele>
        <time>2016-02-02T15:02:15Z</time>
      </trkpt>
      <trkpt lat="44.41102" lon="4.182">
        <ele>239.51</ele>
        <time>2016-02-02T15:02:29Z</time>
      </trkpt>
      <trkpt lat="44.41102" lon="4.18199">
        <ele>238.54</ele>
        <time>2016-02-02T15:02:34Z</time>
      </trkpt>
      <trkpt lat="44.41106" lon="4.18188">
        <ele>239.99</ele>
        <time>2016-02-02T15:02:42Z</time>
      </trkpt>
      <trkpt lat="44.41112" lon="4.18173">
        <ele>240.47</ele>
        <time>2016-02-02T15:02:52Z</time>
      </trkpt>
      <trkpt lat="44.41115" lon="4.1817">
        <ele>241.43</ele>
        <time>2016-02-02T15:02:58Z</time>
      </trkpt>
      <trkpt lat="44.41118" lon="4.18156">
        <ele>241.43</ele>
        <time>2016-02-02T15:03:12Z</time>
      </trkpt>
      <trkpt lat="44.4112" lon="4.18157">
        <ele>242.39</ele>
        <time>2016-02-02T15:03:18Z</time>
      </trkpt>
      <trkpt lat="44.41125" lon="4.18145">
        <ele>243.83</ele>
        <time>2016-02-02T15:03:33Z</time>
      </trkpt>
      <trkpt lat="44.41124" lon="4.18138">
        <ele>243.83</ele>
        <time>2016-02-02T15:03:39Z</time>
      </trkpt>
      <trkpt lat="44.41125" lon="4.18127">
        <ele>242.39</ele>
        <time>2016-02-02T15:03:53Z</time>
      </trkpt>
      <trkpt lat="44.41125" lon="4.18116">
        <ele>242.39</ele>
        <time>2016-02-02T15:04:04Z</time>
      </trkpt>
      <trkpt lat="44.41128" lon="4.18114">
        <ele>243.35</ele>
        <time>2016-02-02T15:04:16Z</time>
      </trkpt>
      <trkpt lat="44.41129" lon="4.1811">
        <ele>243.35</ele>
        <time>2016-02-02T15:04:20Z</time>
      </trkpt>
      <trkpt lat="44.41131" lon="4.18103">
        <ele>243.35</ele>
        <time>2016-02-02T15:04:26Z</time>
      </trkpt>
      <trkpt lat="44.41131" lon="4.18089">
        <ele>242.39</ele>
        <time>2016-02-02T15:04:35Z</time>
      </trkpt>
      <trkpt lat="44.41135" lon="4.18078">
        <ele>241.91</ele>
        <time>2016-02-02T15:04:45Z</time>
      </trkpt>
      <trkpt lat="44.41144" lon="4.18063">
        <ele>241.43</ele>
        <time>2016-02-02T15:05:01Z</time>
      </trkpt>
      <trkpt lat="44.41147" lon="4.1805">
        <ele>241.43</ele>
        <time>2016-02-02T15:05:13Z</time>
      </trkpt>
      <trkpt lat="44.41146" lon="4.18049">
        <ele>240.95</ele>
        <time>2016-02-02T15:05:25Z</time>
      </trkpt>
      <trkpt lat="44.41154" lon="4.18049">
        <ele>240.95</ele>
        <time>2016-02-02T15:05:35Z</time>
      </trkpt>
      <trkpt lat="44.41155" lon="4.18049">
        <ele>240.95</ele>
        <time>2016-02-02T15:05:38Z</time>
      </trkpt>
      <trkpt lat="44.41166" lon="4.18059">
        <ele>241.91</ele>
        <time>2016-02-02T15:05:52Z</time>
      </trkpt>
      <trkpt lat="44.41167" lon="4.1806">
        <ele>234.22</ele>
        <time>2016-02-02T15:06:02Z</time>
      </trkpt>
      <trkpt lat="44.41167" lon="4.1806">
        <ele>239.51</ele>
        <time>2016-02-02T15:06:03Z</time>
      </trkpt>
      <trkpt lat="44.41167" lon="4.1806">
        <ele>249.6</ele>
        <time>2016-02-02T15:06:04Z</time>
      </trkpt>
      <trkpt lat="44.41167" lon="4.18059">
        <ele>241.91</ele>
        <time>2016-02-02T15:06:05Z</time>
      </trkpt>
      <trkpt lat="44.41167" lon="4.18059">
        <ele>240.47</ele>
        <time>2016-02-02T15:06:07Z</time>
      </trkpt>
      <trkpt lat="44.41167" lon="4.18056">
        <ele>237.1</ele>
        <time>2016-02-02T15:06:22Z</time>
      </trkpt>
      <trkpt lat="44.41167" lon="4.18056">
        <ele>243.35</ele>
        <time>2016-02-02T15:06:23Z</time>
      </trkpt>
      <trkpt lat="44.41168" lon="4.18056">
        <ele>239.02</ele>
        <time>2016-02-02T15:06:24Z</time>
      </trkpt>
      <trkpt lat="44.41168" lon="4.18056">
        <ele>242.87</ele>
        <time>2016-02-02T15:06:26Z</time>
      </trkpt>
      <trkpt lat="44.41168" lon="4.18056">
        <ele>239.99</ele>
        <time>2016-02-02T15:06:27Z</time>
      </trkpt>
      <trkpt lat="44.41168" lon="4.18056">
        <ele>235.66</ele>
        <time>2016-02-02T15:06:29Z</time>
      </trkpt>
      <trkpt lat="44.41168" lon="4.18056">
        <ele>243.83</ele>
        <time>2016-02-02T15:06:30Z</time>
      </trkpt>
      <trkpt lat="44.41168" lon="4.18056">
        <ele>239.02</ele>
        <time>2016-02-02T15:06:31Z</time>
      </trkpt>
      <trkpt lat="44.41168" lon="4.18055">
        <ele>238.54</ele>
        <time>2016-02-02T15:06:50Z</time>
      </trkpt>
      <trkpt lat="44.41167" lon="4.18052">
        <ele>237.1</ele>
        <time>2016-02-02T15:07:08Z</time>
      </trkpt>
      <trkpt lat="44.41162" lon="4.1805">
        <ele>238.54</ele>
        <time>2016-02-02T15:07:17Z</time>
      </trkpt>
      <trkpt lat="44.41159" lon="4.18048">
        <ele>237.58</ele>
        <time>2016-02-02T15:07:22Z</time>
      </trkpt>
      <trkpt lat="44.41147" lon="4.1804">
        <ele>236.62</ele>
        <time>2016-02-02T15:07:38Z</time>
      </trkpt>
      <trkpt lat="44.41138" lon="4.18043">
        <ele>234.22</ele>
        <time>2016-02-02T15:07:53Z</time>
      </trkpt>
      <trkpt lat="44.4113" lon="4.18037">
        <ele>233.26</ele>
        <time>2016-02-02T15:08:08Z</time>
      </trkpt>
      <trkpt lat="44.4113" lon="4.18026">
        <ele>232.3</ele>
        <time>2016-02-02T15:08:20Z</time>
      </trkpt>
      <trkpt lat="44.41129" lon="4.18021">
        <ele>231.33</ele>
        <time>2016-02-02T15:08:32Z</time>
      </trkpt>
      <trkpt lat="44.41121" lon="4.18018">
        <ele>230.37</ele>
        <time>2016-02-02T15:08:44Z</time>
      </trkpt>
      <trkpt lat="44.4112" lon="4.18019">
        <ele>229.89</ele>
        <time>2016-02-02T15:08:59Z</time>
      </trkpt>
      <trkpt lat="44.41122" lon="4.18019">
        <ele>229.89</ele>
        <time>2016-02-02T15:09:09Z</time>
      </trkpt>
      <trkpt lat="44.41123" lon="4.18012">
        <ele>228.93</ele>
        <time>2016-02-02T15:09:18Z</time>
      </trkpt>
      <trkpt lat="44.41128" lon="4.18013">
        <ele>230.85</ele>
        <time>2016-02-02T15:09:29Z</time>
      </trkpt>
      <trkpt lat="44.4113" lon="4.18005">
        <ele>229.89</ele>
        <time>2016-02-02T15:09:42Z</time>
      </trkpt>
      <trkpt lat="44.41128" lon="4.18007">
        <ele>229.41</ele>
        <time>2016-02-02T15:09:55Z</time>
      </trkpt>
      <trkpt lat="44.41128" lon="4.18002">
        <ele>229.41</ele>
        <time>2016-02-02T15:10:11Z</time>
      </trkpt>
      <trkpt lat="44.41128" lon="4.17998">
        <ele>228.45</ele>
        <time>2016-02-02T15:10:18Z</time>
      </trkpt>
      <trkpt lat="44.41129" lon="4.17996">
        <ele>234.22</ele>
        <time>2016-02-02T15:10:20Z</time>
      </trkpt>
      <trkpt lat="44.41129" lon="4.17996">
        <ele>232.78</ele>
        <time>2016-02-02T15:10:21Z</time>
      </trkpt>
      <trkpt lat="44.41129" lon="4.17996">
        <ele>227.97</ele>
        <time>2016-02-02T15:10:24Z</time>
      </trkpt>
      <trkpt lat="44.41129" lon="4.17996">
        <ele>227.97</ele>
        <time>2016-02-02T15:10:25Z</time>
      </trkpt>
      <trkpt lat="44.41123" lon="4.17996">
        <ele>227.97</ele>
        <time>2016-02-02T15:10:47Z</time>
      </trkpt>
      <trkpt lat="44.4112" lon="4.17993">
        <ele>223.16</ele>
        <time>2016-02-02T15:11:02Z</time>
      </trkpt>
      <trkpt lat="44.4112" lon="4.17994">
        <ele>229.89</ele>
        <time>2016-02-02T15:11:03Z</time>
      </trkpt>
      <trkpt lat="44.4112" lon="4.17994">
        <ele>229.89</ele>
        <time>2016-02-02T15:11:04Z</time>
      </trkpt>
      <trkpt lat="44.4112" lon="4.17994">
        <ele>228.45</ele>
        <time>2016-02-02T15:11:06Z</time>
      </trkpt>
      <trkpt lat="44.4112" lon="4.17992">
        <ele>227.01</ele>
        <time>2016-02-02T15:11:24Z</time>
      </trkpt>
      <trkpt lat="44.41118" lon="4.1799">
        <ele>229.89</ele>
        <time>2016-02-02T15:11:32Z</time>
      </trkpt>
      <trkpt lat="44.41118" lon="4.17988">
        <ele>229.41</ele>
        <time>2016-02-02T15:11:47Z</time>
      </trkpt>
      <trkpt lat="44.41114" lon="4.17988">
        <ele>229.89</ele>
        <time>2016-02-02T15:12:07Z</time>
      </trkpt>
      <trkpt lat="44.41118" lon="4.17983">
        <ele>228.93</ele>
        <time>2016-02-02T15:12:25Z</time>
      </trkpt>
      <trkpt lat="44.41118" lon="4.1798">
        <ele>230.37</ele>
        <time>2016-02-02T15:12:28Z</time>
      </trkpt>
      <trkpt lat="44.41117" lon="4.17978">
        <ele>229.41</ele>
        <time>2016-02-02T15:12:30Z</time>
      </trkpt>
      <trkpt lat="44.41118" lon="4.17966">
        <ele>229.41</ele>
        <time>2016-02-02T15:12:45Z</time>
      </trkpt>
      <trkpt lat="44.41117" lon="4.17964">
        <ele>229.41</ele>
        <time>2016-02-02T15:12:49Z</time>
      </trkpt>
      <trkpt lat="44.41114" lon="4.17963">
        <ele>228.93</ele>
        <time>2016-02-02T15:13:04Z</time>
      </trkpt>
      <trkpt lat="44.41112" lon="4.17963">
        <ele>226.53</ele>
        <time>2016-02-02T15:13:21Z</time>
      </trkpt>
      <trkpt lat="44.41113" lon="4.17964">
        <ele>226.05</ele>
        <time>2016-02-02T15:13:38Z</time>
      </trkpt>
      <trkpt lat="44.41111" lon="4.17962">
        <ele>222.2</ele>
        <time>2016-02-02T15:13:52Z</time>
      </trkpt>
      <trkpt lat="44.41109" lon="4.17962">
        <ele>222.2</ele>
        <time>2016-02-02T15:13:59Z</time>
      </trkpt>
      <trkpt lat="44.41109" lon="4.17963">
        <ele>217.88</ele>
        <time>2016-02-02T15:14:03Z</time>
      </trkpt>
      <trkpt lat="44.41109" lon="4.17963">
        <ele>224.12</ele>
        <time>2016-02-02T15:14:04Z</time>
      </trkpt>
      <trkpt lat="44.41109" lon="4.17963">
        <ele>224.12</ele>
        <time>2016-02-02T15:14:05Z</time>
      </trkpt>
      <trkpt lat="44.41109" lon="4.17963">
        <ele>222.68</ele>
        <time>2016-02-02T15:14:07Z</time>
      </trkpt>
      <trkpt lat="44.41109" lon="4.17961">
        <ele>222.68</ele>
        <time>2016-02-02T15:14:30Z</time>
      </trkpt>
      <trkpt lat="44.41105" lon="4.17955">
        <ele>221.24</ele>
        <time>2016-02-02T15:14:56Z</time>
      </trkpt>
      <trkpt lat="44.41105" lon="4.17953">
        <ele>221.24</ele>
        <time>2016-02-02T15:14:57Z</time>
      </trkpt>
      <trkpt lat="44.41105" lon="4.17946">
        <ele>219.32</ele>
        <time>2016-02-02T15:15:17Z</time>
      </trkpt>
      <trkpt lat="44.41104" lon="4.17934">
        <ele>218.36</ele>
        <time>2016-02-02T15:15:36Z</time>
      </trkpt>
      <trkpt lat="44.41104" lon="4.17933">
        <ele>217.4</ele>
        <time>2016-02-02T15:15:38Z</time>
      </trkpt>
      <trkpt lat="44.41101" lon="4.17931">
        <ele>212.59</ele>
        <time>2016-02-02T15:15:52Z</time>
      </trkpt>
      <trkpt lat="44.41101" lon="4.17931">
        <ele>219.32</ele>
        <time>2016-02-02T15:15:53Z</time>
      </trkpt>
      <trkpt lat="44.41101" lon="4.17931">
        <ele>214.99</ele>
        <time>2016-02-02T15:15:54Z</time>
      </trkpt>
      <trkpt lat="44.411" lon="4.17931">
        <ele>215.47</ele>
        <time>2016-02-02T15:16:13Z</time>
      </trkpt>
      <trkpt lat="44.41099" lon="4.17933">
        <ele>214.99</ele>
        <time>2016-02-02T15:16:30Z</time>
      </trkpt>
      <trkpt lat="44.41098" lon="4.17931">
        <ele>211.63</ele>
        <time>2016-02-02T15:16:52Z</time>
      </trkpt>
      <trkpt lat="44.41098" lon="4.1793">
        <ele>218.84</ele>
        <time>2016-02-02T15:16:53Z</time>
      </trkpt>
      <trkpt lat="44.41098" lon="4.1793">
        <ele>214.99</ele>
        <time>2016-02-02T15:16:54Z</time>
      </trkpt>
      <trkpt lat="44.41094" lon="4.17921">
        <ele>212.11</ele>
        <time>2016-02-02T15:17:11Z</time>
      </trkpt>
      <trkpt lat="44.41097" lon="4.17916">
        <ele>210.19</ele>
        <time>2016-02-02T15:17:30Z</time>
      </trkpt>
      <trkpt lat="44.41098" lon="4.17915">
        <ele>212.11</ele>
        <time>2016-02-02T15:17:33Z</time>
      </trkpt>
      <trkpt lat="44.41101" lon="4.17918">
        <ele>209.22</ele>
        <time>2016-02-02T15:17:50Z</time>
      </trkpt>
      <trkpt lat="44.41094" lon="4.17914">
        <ele>208.74</ele>
        <time>2016-02-02T15:18:12Z</time>
      </trkpt>
      <trkpt lat="44.41093" lon="4.17914">
        <ele>205.86</ele>
        <time>2016-02-02T15:18:16Z</time>
      </trkpt>
      <trkpt lat="44.4109" lon="4.17919">
        <ele>206.82</ele>
        <time>2016-02-02T15:18:29Z</time>
      </trkpt>
      <trkpt lat="44.41088" lon="4.17921">
        <ele>203.94</ele>
        <time>2016-02-02T15:18:38Z</time>
      </trkpt>
      <trkpt lat="44.41088" lon="4.17921">
        <ele>203.94</ele>
        <time>2016-02-02T15:18:39Z</time>
      </trkpt>
      <trkpt lat="44.41087" lon="4.17922">
        <ele>207.3</ele>
        <time>2016-02-02T15:18:40Z</time>
      </trkpt>
      <trkpt lat="44.41087" lon="4.17922">
        <ele>205.38</ele>
        <time>2016-02-02T15:18:41Z</time>
      </trkpt>
      <trkpt lat="44.41082" lon="4.17923">
        <ele>202.98</ele>
        <time>2016-02-02T15:18:58Z</time>
      </trkpt>
      <trkpt lat="44.41086" lon="4.17914">
        <ele>202.98</ele>
        <time>2016-02-02T15:19:17Z</time>
      </trkpt>
      <trkpt lat="44.41088" lon="4.17912">
        <ele>203.46</ele>
        <time>2016-02-02T15:19:33Z</time>
      </trkpt>
      <trkpt lat="44.41088" lon="4.17912">
        <ele>203.94</ele>
        <time>2016-02-02T15:19:46Z</time>
      </trkpt>
      <trkpt lat="44.41088" lon="4.17912">
        <ele>202.49</ele>
        <time>2016-02-02T15:19:48Z</time>
      </trkpt>
      <trkpt lat="44.4109" lon="4.17911">
        <ele>202.01</ele>
        <time>2016-02-02T15:20:02Z</time>
      </trkpt>
      <trkpt lat="44.41089" lon="4.17908">
        <ele>203.46</ele>
        <time>2016-02-02T15:20:27Z</time>
      </trkpt>
      <trkpt lat="44.41089" lon="4.1791">
        <ele>202.01</ele>
        <time>2016-02-02T15:20:34Z</time>
      </trkpt>
      <trkpt lat="44.41092" lon="4.17907">
        <ele>202.98</ele>
        <time>2016-02-02T15:20:55Z</time>
      </trkpt>
      <trkpt lat="44.41093" lon="4.17906">
        <ele>202.98</ele>
        <time>2016-02-02T15:21:20Z</time>
      </trkpt>
      <trkpt lat="44.4109" lon="4.17907">
        <ele>201.05</ele>
        <time>2016-02-02T15:21:43Z</time>
      </trkpt>
      <trkpt lat="44.41083" lon="4.17904">
        <ele>201.05</ele>
        <time>2016-02-02T15:22:00Z</time>
      </trkpt>
      <trkpt lat="44.41083" lon="4.17903">
        <ele>197.69</ele>
        <time>2016-02-02T15:22:11Z</time>
      </trkpt>
      <trkpt lat="44.41083" lon="4.17903">
        <ele>189.04</ele>
        <time>2016-02-02T15:22:12Z</time>
      </trkpt>
      <trkpt lat="44.41083" lon="4.17902">
        <ele>206.82</ele>
        <time>2016-02-02T15:22:13Z</time>
      </trkpt>
      <trkpt lat="44.41083" lon="4.17902">
        <ele>200.57</ele>
        <time>2016-02-02T15:22:14Z</time>
      </trkpt>
      <trkpt lat="44.41083" lon="4.17902">
        <ele>197.21</ele>
        <time>2016-02-02T15:22:15Z</time>
      </trkpt>
      <trkpt lat="44.41083" lon="4.17902">
        <ele>199.61</ele>
        <time>2016-02-02T15:22:16Z</time>
      </trkpt>
      <trkpt lat="44.41079" lon="4.17898">
        <ele>197.21</ele>
        <time>2016-02-02T15:22:29Z</time>
      </trkpt>
      <trkpt lat="44.41077" lon="4.17893">
        <ele>193.84</ele>
        <time>2016-02-02T15:22:40Z</time>
      </trkpt>
      <trkpt lat="44.41073" lon="4.17893">
        <ele>193.84</ele>
        <time>2016-02-02T15:22:57Z</time>
      </trkpt>
      <trkpt lat="44.41072" lon="4.17886">
        <ele>192.88</ele>
        <time>2016-02-02T15:23:04Z</time>
      </trkpt>
      <trkpt lat="44.41071" lon="4.17874">
        <ele>190.48</ele>
        <time>2016-02-02T15:23:19Z</time>
      </trkpt>
      <trkpt lat="44.41066" lon="4.17864">
        <ele>188.08</ele>
        <time>2016-02-02T15:23:34Z</time>
      </trkpt>
      <trkpt lat="44.41069" lon="4.1786">
        <ele>188.08</ele>
        <time>2016-02-02T15:23:45Z</time>
      </trkpt>
      <trkpt lat="44.41069" lon="4.17856">
        <ele>188.08</ele>
        <time>2016-02-02T15:23:47Z</time>
      </trkpt>
      <trkpt lat="44.41069" lon="4.17851">
        <ele>188.08</ele>
        <time>2016-02-02T15:23:51Z</time>
      </trkpt>
      <trkpt lat="44.41069" lon="4.17848">
        <ele>187.11</ele>
        <time>2016-02-02T15:24:05Z</time>
      </trkpt>
      <trkpt lat="44.41068" lon="4.17835">
        <ele>185.67</ele>
        <time>2016-02-02T15:24:18Z</time>
      </trkpt>
      <trkpt lat="44.41068" lon="4.17827">
        <ele>184.71</ele>
        <time>2016-02-02T15:24:31Z</time>
      </trkpt>
      <trkpt lat="44.41065" lon="4.17821">
        <ele>181.35</ele>
        <time>2016-02-02T15:24:44Z</time>
      </trkpt>
      <trkpt lat="44.41065" lon="4.17813">
        <ele>179.9</ele>
        <time>2016-02-02T15:24:57Z</time>
      </trkpt>
      <trkpt lat="44.41066" lon="4.17799">
        <ele>178.46</ele>
        <time>2016-02-02T15:25:12Z</time>
      </trkpt>
      <trkpt lat="44.41066" lon="4.178">
        <ele>178.46</ele>
        <time>2016-02-02T15:25:21Z</time>
      </trkpt>
      <trkpt lat="44.41062" lon="4.17803">
        <ele>177.02</ele>
        <time>2016-02-02T15:25:32Z</time>
      </trkpt>
      <trkpt lat="44.41062" lon="4.17809">
        <ele>177.02</ele>
        <time>2016-02-02T15:25:53Z</time>
      </trkpt>
      <trkpt lat="44.4106" lon="4.17803">
        <ele>177.02</ele>
        <time>2016-02-02T15:26:11Z</time>
      </trkpt>
      <trkpt lat="44.41055" lon="4.17796">
        <ele>174.62</ele>
        <time>2016-02-02T15:26:28Z</time>
      </trkpt>
      <trkpt lat="44.4105" lon="4.17793">
        <ele>173.17</ele>
        <time>2016-02-02T15:26:41Z</time>
      </trkpt>
      <trkpt lat="44.41049" lon="4.178">
        <ele>173.17</ele>
        <time>2016-02-02T15:27:00Z</time>
      </trkpt>
      <trkpt lat="44.4105" lon="4.17793">
        <ele>174.14</ele>
        <time>2016-02-02T15:27:15Z</time>
      </trkpt>
      <trkpt lat="44.41051" lon="4.17792">
        <ele>174.62</ele>
        <time>2016-02-02T15:27:19Z</time>
      </trkpt>
      <trkpt lat="44.41052" lon="4.17791">
        <ele>174.62</ele>
        <time>2016-02-02T15:27:39Z</time>
      </trkpt>
      <trkpt lat="44.4105" lon="4.17791">
        <ele>173.17</ele>
        <time>2016-02-02T15:27:46Z</time>
      </trkpt>
      <trkpt lat="44.41049" lon="4.17788">
        <ele>172.69</ele>
        <time>2016-02-02T15:27:58Z</time>
      </trkpt>
      <trkpt lat="44.41051" lon="4.17783">
        <ele>171.25</ele>
        <time>2016-02-02T15:28:18Z</time>
      </trkpt>
      <trkpt lat="44.41049" lon="4.17775">
        <ele>170.29</ele>
        <time>2016-02-02T15:28:30Z</time>
      </trkpt>
      <trkpt lat="44.41047" lon="4.17774">
        <ele>169.81</ele>
        <time>2016-02-02T15:28:34Z</time>
      </trkpt>
      <trkpt lat="44.41047" lon="4.17784">
        <ele>169.81</ele>
        <time>2016-02-02T15:28:42Z</time>
      </trkpt>
      <trkpt lat="44.41045" lon="4.17796">
        <ele>171.25</ele>
        <time>2016-02-02T15:28:52Z</time>
      </trkpt>
      <trkpt lat="44.41046" lon="4.17805">
        <ele>172.69</ele>
        <time>2016-02-02T15:29:04Z</time>
      </trkpt>
      <trkpt lat="44.41046" lon="4.17819">
        <ele>173.17</ele>
        <time>2016-02-02T15:29:16Z</time>
      </trkpt>
      <trkpt lat="44.41047" lon="4.17832">
        <ele>175.1</ele>
        <time>2016-02-02T15:29:28Z</time>
      </trkpt>
      <trkpt lat="44.41047" lon="4.17842">
        <ele>176.06</ele>
        <time>2016-02-02T15:29:36Z</time>
      </trkpt>
      <trkpt lat="44.41046" lon="4.17855">
        <ele>177.5</ele>
        <time>2016-02-02T15:29:47Z</time>
      </trkpt>
      <trkpt lat="44.41049" lon="4.17871">
        <ele>178.94</ele>
        <time>2016-02-02T15:30:00Z</time>
      </trkpt>
      <trkpt lat="44.41049" lon="4.17883">
        <ele>179.9</ele>
        <time>2016-02-02T15:30:14Z</time>
      </trkpt>
      <trkpt lat="44.41047" lon="4.17886">
        <ele>180.38</ele>
        <time>2016-02-02T15:30:26Z</time>
      </trkpt>
      <trkpt lat="44.41047" lon="4.17899">
        <ele>178.94</ele>
        <time>2016-02-02T15:30:35Z</time>
      </trkpt>
      <trkpt lat="44.41049" lon="4.17907">
        <ele>178.94</ele>
        <time>2016-02-02T15:30:44Z</time>
      </trkpt>
      <trkpt lat="44.41051" lon="4.17918">
        <ele>180.38</ele>
        <time>2016-02-02T15:30:52Z</time>
      </trkpt>
      <trkpt lat="44.41051" lon="4.17919">
        <ele>180.38</ele>
        <time>2016-02-02T15:30:53Z</time>
      </trkpt>
      <trkpt lat="44.41054" lon="4.17933">
        <ele>181.83</ele>
        <time>2016-02-02T15:31:05Z</time>
      </trkpt>
      <trkpt lat="44.41057" lon="4.17944">
        <ele>183.27</ele>
        <time>2016-02-02T15:31:16Z</time>
      </trkpt>
      <trkpt lat="44.41063" lon="4.17957">
        <ele>182.31</ele>
        <time>2016-02-02T15:31:29Z</time>
      </trkpt>
      <trkpt lat="44.41066" lon="4.17969">
        <ele>182.79</ele>
        <time>2016-02-02T15:31:44Z</time>
      </trkpt>
      <trkpt lat="44.41068" lon="4.17989">
        <ele>182.31</ele>
        <time>2016-02-02T15:32:00Z</time>
      </trkpt>
      <trkpt lat="44.41069" lon="4.18">
        <ele>177.98</ele>
        <time>2016-02-02T15:32:10Z</time>
      </trkpt>
      <trkpt lat="44.41069" lon="4.18">
        <ele>184.71</ele>
        <time>2016-02-02T15:32:11Z</time>
      </trkpt>
      <trkpt lat="44.41069" lon="4.18">
        <ele>182.31</ele>
        <time>2016-02-02T15:32:12Z</time>
      </trkpt>
      <trkpt lat="44.41069" lon="4.1801">
        <ele>181.35</ele>
        <time>2016-02-02T15:32:27Z</time>
      </trkpt>
      <trkpt lat="44.41066" lon="4.18026">
        <ele>180.87</ele>
        <time>2016-02-02T15:32:41Z</time>
      </trkpt>
      <trkpt lat="44.41062" lon="4.18051">
        <ele>181.83</ele>
        <time>2016-02-02T15:32:59Z</time>
      </trkpt>
      <trkpt lat="44.41061" lon="4.18066">
        <ele>180.38</ele>
        <time>2016-02-02T15:33:11Z</time>
      </trkpt>
      <trkpt lat="44.41068" lon="4.18072">
        <ele>180.38</ele>
        <time>2016-02-02T15:33:31Z</time>
      </trkpt>
      <trkpt lat="44.4107" lon="4.18073">
        <ele>175.58</ele>
        <time>2016-02-02T15:33:48Z</time>
      </trkpt>
      <trkpt lat="44.4107" lon="4.18073">
        <ele>180.87</ele>
        <time>2016-02-02T15:33:49Z</time>
      </trkpt>
      <trkpt lat="44.4107" lon="4.18073">
        <ele>180.87</ele>
        <time>2016-02-02T15:33:50Z</time>
      </trkpt>
      <trkpt lat="44.4107" lon="4.18072">
        <ele>182.79</ele>
        <time>2016-02-02T15:33:58Z</time>
      </trkpt>
      <trkpt lat="44.41074" lon="4.1807">
        <ele>179.42</ele>
        <time>2016-02-02T15:34:09Z</time>
      </trkpt>
      <trkpt lat="44.41074" lon="4.1807">
        <ele>179.42</ele>
        <time>2016-02-02T15:34:10Z</time>
      </trkpt>
      <trkpt lat="44.41075" lon="4.18069">
        <ele>180.38</ele>
        <time>2016-02-02T15:34:12Z</time>
      </trkpt>
      <trkpt lat="44.41075" lon="4.18072">
        <ele>177.5</ele>
        <time>2016-02-02T15:34:23Z</time>
      </trkpt>
      <trkpt lat="44.41075" lon="4.18072">
        <ele>181.35</ele>
        <time>2016-02-02T15:34:24Z</time>
      </trkpt>
      <trkpt lat="44.41074" lon="4.18072">
        <ele>177.02</ele>
        <time>2016-02-02T15:34:26Z</time>
      </trkpt>
      <trkpt lat="44.41074" lon="4.18071">
        <ele>180.87</ele>
        <time>2016-02-02T15:34:27Z</time>
      </trkpt>
      <trkpt lat="44.41073" lon="4.1807">
        <ele>179.9</ele>
        <time>2016-02-02T15:34:33Z</time>
      </trkpt>
      <trkpt lat="44.41074" lon="4.18073">
        <ele>183.27</ele>
        <time>2016-02-02T15:34:40Z</time>
      </trkpt>
      <trkpt lat="44.41073" lon="4.18073">
        <ele>183.27</ele>
        <time>2016-02-02T15:34:41Z</time>
      </trkpt>
      <trkpt lat="44.41076" lon="4.18074">
        <ele>180.87</ele>
        <time>2016-02-02T15:34:43Z</time>
      </trkpt>
      <trkpt lat="44.41079" lon="4.18073">
        <ele>180.87</ele>
        <time>2016-02-02T15:35:07Z</time>
      </trkpt>
      <trkpt lat="44.41077" lon="4.18071">
        <ele>179.9</ele>
        <time>2016-02-02T15:35:11Z</time>
      </trkpt>
      <trkpt lat="44.41076" lon="4.18071">
        <ele>181.35</ele>
        <time>2016-02-02T15:35:13Z</time>
      </trkpt>
      <trkpt lat="44.41076" lon="4.18072">
        <ele>179.9</ele>
        <time>2016-02-02T15:35:15Z</time>
      </trkpt>
      <trkpt lat="44.4108" lon="4.18089">
        <ele>179.9</ele>
        <time>2016-02-02T15:35:31Z</time>
      </trkpt>
      <trkpt lat="44.41081" lon="4.18093">
        <ele>181.35</ele>
        <time>2016-02-02T15:35:35Z</time>
      </trkpt>
      <trkpt lat="44.41074" lon="4.18111">
        <ele>179.9</ele>
        <time>2016-02-02T15:35:49Z</time>
      </trkpt>
      <trkpt lat="44.41069" lon="4.18119">
        <ele>179.9</ele>
        <time>2016-02-02T15:36:05Z</time>
      </trkpt>
      <trkpt lat="44.4107" lon="4.18121">
        <ele>173.17</ele>
        <time>2016-02-02T15:36:08Z</time>
      </trkpt>
      <trkpt lat="44.4107" lon="4.18122">
        <ele>180.38</ele>
        <time>2016-02-02T15:36:09Z</time>
      </trkpt>
      <trkpt lat="44.4107" lon="4.18122">
        <ele>180.38</ele>
        <time>2016-02-02T15:36:10Z</time>
      </trkpt>
      <trkpt lat="44.4107" lon="4.18123">
        <ele>184.71</ele>
        <time>2016-02-02T15:36:12Z</time>
      </trkpt>
      <trkpt lat="44.4107" lon="4.18123">
        <ele>180.38</ele>
        <time>2016-02-02T15:36:13Z</time>
      </trkpt>
      <trkpt lat="44.41069" lon="4.18126">
        <ele>179.9</ele>
        <time>2016-02-02T15:36:16Z</time>
      </trkpt>
      <trkpt lat="44.41065" lon="4.18139">
        <ele>179.42</ele>
        <time>2016-02-02T15:36:33Z</time>
      </trkpt>
      <trkpt lat="44.41057" lon="4.18151">
        <ele>180.38</ele>
        <time>2016-02-02T15:36:49Z</time>
      </trkpt>
      <trkpt lat="44.41046" lon="4.18165">
        <ele>179.42</ele>
        <time>2016-02-02T15:37:04Z</time>
      </trkpt>
      <trkpt lat="44.41042" lon="4.18177">
        <ele>178.46</ele>
        <time>2016-02-02T15:37:16Z</time>
      </trkpt>
      <trkpt lat="44.41038" lon="4.18184">
        <ele>178.46</ele>
        <time>2016-02-02T15:37:22Z</time>
      </trkpt>
      <trkpt lat="44.41032" lon="4.18196">
        <ele>178.94</ele>
        <time>2016-02-02T15:37:31Z</time>
      </trkpt>
      <trkpt lat="44.4103" lon="4.18208">
        <ele>177.5</ele>
        <time>2016-02-02T15:37:43Z</time>
      </trkpt>
      <trkpt lat="44.41025" lon="4.18234">
        <ele>177.02</ele>
        <time>2016-02-02T15:38:01Z</time>
      </trkpt>
      <trkpt lat="44.41026" lon="4.18244">
        <ele>177.5</ele>
        <time>2016-02-02T15:38:08Z</time>
      </trkpt>
      <trkpt lat="44.41023" lon="4.18251">
        <ele>176.54</ele>
        <time>2016-02-02T15:38:13Z</time>
      </trkpt>
      <trkpt lat="44.41016" lon="4.18267">
        <ele>176.54</ele>
        <time>2016-02-02T15:38:24Z</time>
      </trkpt>
      <trkpt lat="44.41007" lon="4.18273">
        <ele>176.54</ele>
        <time>2016-02-02T15:38:31Z</time>
      </trkpt>
      <trkpt lat="44.40992" lon="4.18289">
        <ele>174.14</ele>
        <time>2016-02-02T15:38:47Z</time>
      </trkpt>
      <trkpt lat="44.40984" lon="4.18298">
        <ele>172.69</ele>
        <time>2016-02-02T15:38:57Z</time>
      </trkpt>
      <trkpt lat="44.40983" lon="4.183">
        <ele>174.14</ele>
        <time>2016-02-02T15:38:59Z</time>
      </trkpt>
      <trkpt lat="44.40976" lon="4.18307">
        <ele>172.21</ele>
        <time>2016-02-02T15:39:08Z</time>
      </trkpt>
      <trkpt lat="44.4097" lon="4.18314">
        <ele>171.73</ele>
        <time>2016-02-02T15:39:22Z</time>
      </trkpt>
      <trkpt lat="44.4097" lon="4.18319">
        <ele>174.14</ele>
        <time>2016-02-02T15:39:27Z</time>
      </trkpt>
      <trkpt lat="44.40968" lon="4.18325">
        <ele>172.21</ele>
        <time>2016-02-02T15:39:42Z</time>
      </trkpt>
      <trkpt lat="44.40966" lon="4.18332">
        <ele>171.25</ele>
        <time>2016-02-02T15:39:56Z</time>
      </trkpt>
      <trkpt lat="44.40964" lon="4.18349">
        <ele>170.29</ele>
        <time>2016-02-02T15:40:11Z</time>
      </trkpt>
      <trkpt lat="44.40964" lon="4.18349">
        <ele>173.66</ele>
        <time>2016-02-02T15:40:14Z</time>
      </trkpt>
      <trkpt lat="44.40964" lon="4.18349">
        <ele>172.21</ele>
        <time>2016-02-02T15:40:15Z</time>
      </trkpt>
      <trkpt lat="44.40955" lon="4.18362">
        <ele>169.33</ele>
        <time>2016-02-02T15:40:34Z</time>
      </trkpt>
      <trkpt lat="44.40953" lon="4.18367">
        <ele>170.29</ele>
        <time>2016-02-02T15:40:37Z</time>
      </trkpt>
      <trkpt lat="44.40951" lon="4.1837">
        <ele>169.33</ele>
        <time>2016-02-02T15:40:40Z</time>
      </trkpt>
      <trkpt lat="44.40941" lon="4.1839">
        <ele>167.41</ele>
        <time>2016-02-02T15:40:57Z</time>
      </trkpt>
      <trkpt lat="44.40934" lon="4.18404">
        <ele>166.93</ele>
        <time>2016-02-02T15:41:10Z</time>
      </trkpt>
      <trkpt lat="44.4093" lon="4.18411">
        <ele>166.45</ele>
        <time>2016-02-02T15:41:17Z</time>
      </trkpt>
      <trkpt lat="44.40925" lon="4.18424">
        <ele>165</ele>
        <time>2016-02-02T15:41:33Z</time>
      </trkpt>
      <trkpt lat="44.40925" lon="4.18424">
        <ele>162.6</ele>
        <time>2016-02-02T15:41:38Z</time>
      </trkpt>
      <trkpt lat="44.40925" lon="4.18424">
        <ele>165.48</ele>
        <time>2016-02-02T15:41:39Z</time>
      </trkpt>
      <trkpt lat="44.40926" lon="4.18423">
        <ele>164.52</ele>
        <time>2016-02-02T15:41:40Z</time>
      </trkpt>
      <trkpt lat="44.40927" lon="4.18421">
        <ele>164.04</ele>
        <time>2016-02-02T15:42:02Z</time>
      </trkpt>
      <trkpt lat="44.4092" lon="4.18428">
        <ele>162.6</ele>
        <time>2016-02-02T15:42:21Z</time>
      </trkpt>
      <trkpt lat="44.4091" lon="4.18445">
        <ele>160.2</ele>
        <time>2016-02-02T15:42:37Z</time>
      </trkpt>
      <trkpt lat="44.40911" lon="4.18456">
        <ele>157.79</ele>
        <time>2016-02-02T15:42:48Z</time>
      </trkpt>
      <trkpt lat="44.40913" lon="4.18458">
        <ele>160.2</ele>
        <time>2016-02-02T15:42:52Z</time>
      </trkpt>
      <trkpt lat="44.40919" lon="4.18464">
        <ele>156.83</ele>
        <time>2016-02-02T15:43:02Z</time>
      </trkpt>
      <trkpt lat="44.40919" lon="4.18465">
        <ele>160.68</ele>
        <time>2016-02-02T15:43:03Z</time>
      </trkpt>
      <trkpt lat="44.40911" lon="4.18462">
        <ele>156.83</ele>
        <time>2016-02-02T15:43:12Z</time>
      </trkpt>
      <trkpt lat="44.4091" lon="4.18462">
        <ele>152.51</ele>
        <time>2016-02-02T15:43:14Z</time>
      </trkpt>
      <trkpt lat="44.4091" lon="4.18462">
        <ele>158.27</ele>
        <time>2016-02-02T15:43:15Z</time>
      </trkpt>
      <trkpt lat="44.40907" lon="4.18461">
        <ele>156.35</ele>
        <time>2016-02-02T15:43:28Z</time>
      </trkpt>
      <trkpt lat="44.40911" lon="4.18468">
        <ele>154.91</ele>
        <time>2016-02-02T15:43:40Z</time>
      </trkpt>
      <trkpt lat="44.40916" lon="4.18472">
        <ele>152.99</ele>
        <time>2016-02-02T15:44:00Z</time>
      </trkpt>
      <trkpt lat="44.40921" lon="4.1848">
        <ele>151.54</ele>
        <time>2016-02-02T15:44:16Z</time>
      </trkpt>
      <trkpt lat="44.40922" lon="4.18484">
        <ele>151.06</ele>
        <time>2016-02-02T15:44:19Z</time>
      </trkpt>
      <trkpt lat="44.40928" lon="4.18493">
        <ele>151.06</ele>
        <time>2016-02-02T15:44:31Z</time>
      </trkpt>
      <trkpt lat="44.40929" lon="4.18499">
        <ele>151.06</ele>
        <time>2016-02-02T15:44:41Z</time>
      </trkpt>
      <trkpt lat="44.40931" lon="4.18499">
        <ele>150.58</ele>
        <time>2016-02-02T15:45:10Z</time>
      </trkpt>
      <trkpt lat="44.40931" lon="4.18512">
        <ele>148.66</ele>
        <time>2016-02-02T15:45:22Z</time>
      </trkpt>
      <trkpt lat="44.40929" lon="4.1852">
        <ele>148.18</ele>
        <time>2016-02-02T15:45:39Z</time>
      </trkpt>
      <trkpt lat="44.40919" lon="4.18519">
        <ele>151.06</ele>
        <time>2016-02-02T15:45:56Z</time>
      </trkpt>
      <trkpt lat="44.40918" lon="4.18519">
        <ele>151.06</ele>
        <time>2016-02-02T15:45:57Z</time>
      </trkpt>
      <trkpt lat="44.40911" lon="4.18518">
        <ele>151.06</ele>
        <time>2016-02-02T15:46:04Z</time>
      </trkpt>
      <trkpt lat="44.40907" lon="4.18516">
        <ele>152.03</ele>
        <time>2016-02-02T15:46:27Z</time>
      </trkpt>
      <trkpt lat="44.40906" lon="4.18517">
        <ele>152.03</ele>
        <time>2016-02-02T15:46:28Z</time>
      </trkpt>
      <trkpt lat="44.40887" lon="4.18528">
        <ele>152.03</ele>
        <time>2016-02-02T15:46:44Z</time>
      </trkpt>
      <trkpt lat="44.40881" lon="4.18529">
        <ele>150.58</ele>
        <time>2016-02-02T15:46:50Z</time>
      </trkpt>
      <trkpt lat="44.40879" lon="4.1853">
        <ele>152.03</ele>
        <time>2016-02-02T15:46:52Z</time>
      </trkpt>
      <trkpt lat="44.40867" lon="4.18533">
        <ele>151.06</ele>
        <time>2016-02-02T15:47:07Z</time>
      </trkpt>
      <trkpt lat="44.40859" lon="4.18532">
        <ele>151.06</ele>
        <time>2016-02-02T15:47:23Z</time>
      </trkpt>
      <trkpt lat="44.40858" lon="4.18532">
        <ele>151.06</ele>
        <time>2016-02-02T15:47:24Z</time>
      </trkpt>
      <trkpt lat="44.40849" lon="4.18545">
        <ele>151.06</ele>
        <time>2016-02-02T15:47:35Z</time>
      </trkpt>
      <trkpt lat="44.40844" lon="4.18562">
        <ele>150.1</ele>
        <time>2016-02-02T15:47:50Z</time>
      </trkpt>
      <trkpt lat="44.40845" lon="4.18573">
        <ele>150.1</ele>
        <time>2016-02-02T15:48:01Z</time>
      </trkpt>
      <trkpt lat="44.40842" lon="4.18586">
        <ele>139.05</ele>
        <time>2016-02-02T15:48:11Z</time>
      </trkpt>
      <trkpt lat="44.40841" lon="4.18586">
        <ele>159.72</ele>
        <time>2016-02-02T15:48:12Z</time>
      </trkpt>
      <trkpt lat="44.40841" lon="4.18587">
        <ele>144.82</ele>
        <time>2016-02-02T15:48:13Z</time>
      </trkpt>
      <trkpt lat="44.40841" lon="4.18587">
        <ele>152.99</ele>
        <time>2016-02-02T15:48:14Z</time>
      </trkpt>
      <trkpt lat="44.40841" lon="4.18588">
        <ele>149.14</ele>
        <time>2016-02-02T15:48:16Z</time>
      </trkpt>
      <trkpt lat="44.40839" lon="4.18594">
        <ele>150.1</ele>
        <time>2016-02-02T15:48:21Z</time>
      </trkpt>
      <trkpt lat="44.40832" lon="4.18613">
        <ele>148.66</ele>
        <time>2016-02-02T15:48:36Z</time>
      </trkpt>
      <trkpt lat="44.40831" lon="4.18615">
        <ele>148.66</ele>
        <time>2016-02-02T15:48:37Z</time>
      </trkpt>
      <trkpt lat="44.40827" lon="4.18627">
        <ele>148.18</ele>
        <time>2016-02-02T15:48:46Z</time>
      </trkpt>
      <trkpt lat="44.4083" lon="4.18642">
        <ele>147.7</ele>
        <time>2016-02-02T15:49:00Z</time>
      </trkpt>
      <trkpt lat="44.40827" lon="4.18643">
        <ele>147.7</ele>
        <time>2016-02-02T15:49:03Z</time>
      </trkpt>
      <trkpt lat="44.40816" lon="4.18645">
        <ele>147.7</ele>
        <time>2016-02-02T15:49:16Z</time>
      </trkpt>
      <trkpt lat="44.40812" lon="4.18643">
        <ele>148.18</ele>
        <time>2016-02-02T15:49:20Z</time>
      </trkpt>
      <trkpt lat="44.4081" lon="4.18643">
        <ele>146.74</ele>
        <time>2016-02-02T15:49:21Z</time>
      </trkpt>
      <trkpt lat="44.40805" lon="4.18647">
        <ele>146.74</ele>
        <time>2016-02-02T15:49:27Z</time>
      </trkpt>
      <trkpt lat="44.40792" lon="4.18653">
        <ele>145.78</ele>
        <time>2016-02-02T15:49:42Z</time>
      </trkpt>
      <trkpt lat="44.40788" lon="4.18654">
        <ele>147.22</ele>
        <time>2016-02-02T15:49:46Z</time>
      </trkpt>
      <trkpt lat="44.40778" lon="4.18657">
        <ele>146.74</ele>
        <time>2016-02-02T15:49:56Z</time>
      </trkpt>
      <trkpt lat="44.4077" lon="4.18661">
        <ele>146.74</ele>
        <time>2016-02-02T15:50:10Z</time>
      </trkpt>
      <trkpt lat="44.40765" lon="4.18668">
        <ele>146.74</ele>
        <time>2016-02-02T15:50:23Z</time>
      </trkpt>
      <trkpt lat="44.40763" lon="4.18675">
        <ele>145.3</ele>
        <time>2016-02-02T15:50:30Z</time>
      </trkpt>
      <trkpt lat="44.40747" lon="4.18682">
        <ele>145.3</ele>
        <time>2016-02-02T15:50:47Z</time>
      </trkpt>
      <trkpt lat="44.40739" lon="4.18691">
        <ele>144.82</ele>
        <time>2016-02-02T15:51:02Z</time>
      </trkpt>
      <trkpt lat="44.40728" lon="4.18706">
        <ele>143.37</ele>
        <time>2016-02-02T15:51:17Z</time>
      </trkpt>
      <trkpt lat="44.40721" lon="4.18717">
        <ele>140.01</ele>
        <time>2016-02-02T15:51:33Z</time>
      </trkpt>
      <trkpt lat="44.40716" lon="4.18725">
        <ele>138.09</ele>
        <time>2016-02-02T15:51:48Z</time>
      </trkpt>
      <trkpt lat="44.40707" lon="4.18732">
        <ele>135.2</ele>
        <time>2016-02-02T15:52:04Z</time>
      </trkpt>
      <trkpt lat="44.40704" lon="4.18734">
        <ele>136.64</ele>
        <time>2016-02-02T15:52:08Z</time>
      </trkpt>
      <trkpt lat="44.40694" lon="4.18741">
        <ele>135.2</ele>
        <time>2016-02-02T15:52:24Z</time>
      </trkpt>
      <trkpt lat="44.40692" lon="4.18747">
        <ele>135.2</ele>
        <time>2016-02-02T15:52:39Z</time>
      </trkpt>
      <trkpt lat="44.40685" lon="4.18758">
        <ele>133.28</ele>
        <time>2016-02-02T15:52:50Z</time>
      </trkpt>
      <trkpt lat="44.40681" lon="4.18764">
        <ele>127.51</ele>
        <time>2016-02-02T15:52:57Z</time>
      </trkpt>
      <trkpt lat="44.40681" lon="4.18764">
        <ele>139.05</ele>
        <time>2016-02-02T15:52:58Z</time>
      </trkpt>
      <trkpt lat="44.4068" lon="4.18764">
        <ele>135.68</ele>
        <time>2016-02-02T15:52:59Z</time>
      </trkpt>
      <trkpt lat="44.4068" lon="4.18765">
        <ele>133.76</ele>
        <time>2016-02-02T15:53:01Z</time>
      </trkpt>
      <trkpt lat="44.40674" lon="4.1878">
        <ele>131.84</ele>
        <time>2016-02-02T15:53:15Z</time>
      </trkpt>
      <trkpt lat="44.40672" lon="4.18798">
        <ele>130.88</ele>
        <time>2016-02-02T15:53:30Z</time>
      </trkpt>
      <trkpt lat="44.40673" lon="4.18803">
        <ele>132.8</ele>
        <time>2016-02-02T15:53:36Z</time>
      </trkpt>
      <trkpt lat="44.40677" lon="4.18813">
        <ele>133.76</ele>
        <time>2016-02-02T15:53:56Z</time>
      </trkpt>
      <trkpt lat="44.40678" lon="4.18819">
        <ele>133.76</ele>
        <time>2016-02-02T15:54:12Z</time>
      </trkpt>
      <trkpt lat="44.40674" lon="4.18817">
        <ele>133.76</ele>
        <time>2016-02-02T15:54:37Z</time>
      </trkpt>
      <trkpt lat="44.40673" lon="4.18828">
        <ele>135.68</ele>
        <time>2016-02-02T15:54:52Z</time>
      </trkpt>
      <trkpt lat="44.40673" lon="4.18837">
        <ele>134.24</ele>
        <time>2016-02-02T15:54:58Z</time>
      </trkpt>
      <trkpt lat="44.40675" lon="4.18855">
        <ele>133.28</ele>
        <time>2016-02-02T15:55:11Z</time>
      </trkpt>
      <trkpt lat="44.40669" lon="4.18874">
        <ele>134.72</ele>
        <time>2016-02-02T15:55:27Z</time>
      </trkpt>
      <trkpt lat="44.40664" lon="4.18888">
        <ele>135.68</ele>
        <time>2016-02-02T15:55:40Z</time>
      </trkpt>
      <trkpt lat="44.40653" lon="4.18909">
        <ele>134.72</ele>
        <time>2016-02-02T15:55:58Z</time>
      </trkpt>
      <trkpt lat="44.40654" lon="4.18917">
        <ele>134.72</ele>
        <time>2016-02-02T15:56:03Z</time>
      </trkpt>
      <trkpt lat="44.40656" lon="4.18919">
        <ele>136.64</ele>
        <time>2016-02-02T15:56:05Z</time>
      </trkpt>
      <trkpt lat="44.40658" lon="4.18923">
        <ele>135.2</ele>
        <time>2016-02-02T15:56:08Z</time>
      </trkpt>
      <trkpt lat="44.40655" lon="4.18946">
        <ele>136.16</ele>
        <time>2016-02-02T15:56:23Z</time>
      </trkpt>
      <trkpt lat="44.40655" lon="4.18949">
        <ele>134.72</ele>
        <time>2016-02-02T15:56:25Z</time>
      </trkpt>
      <trkpt lat="44.40642" lon="4.18968">
        <ele>132.32</ele>
        <time>2016-02-02T15:56:45Z</time>
      </trkpt>
      <trkpt lat="44.40631" lon="4.18991">
        <ele>130.88</ele>
        <time>2016-02-02T15:57:03Z</time>
      </trkpt>
      <trkpt lat="44.40628" lon="4.18994">
        <ele>130.88</ele>
        <time>2016-02-02T15:57:06Z</time>
      </trkpt>
      <trkpt lat="44.40617" lon="4.19002">
        <ele>130.88</ele>
        <time>2016-02-02T15:57:15Z</time>
      </trkpt>
      <trkpt lat="44.40615" lon="4.19007">
        <ele>130.88</ele>
        <time>2016-02-02T15:57:17Z</time>
      </trkpt>
      <trkpt lat="44.40605" lon="4.1903">
        <ele>131.36</ele>
        <time>2016-02-02T15:57:36Z</time>
      </trkpt>
      <trkpt lat="44.40598" lon="4.19037">
        <ele>130.88</ele>
        <time>2016-02-02T15:57:44Z</time>
      </trkpt>
      <trkpt lat="44.40589" lon="4.19046">
        <ele>129.43</ele>
        <time>2016-02-02T15:57:54Z</time>
      </trkpt>
      <trkpt lat="44.40579" lon="4.19066">
        <ele>127.99</ele>
        <time>2016-02-02T15:58:09Z</time>
      </trkpt>
      <trkpt lat="44.40568" lon="4.19083">
        <ele>127.03</ele>
        <time>2016-02-02T15:58:23Z</time>
      </trkpt>
      <trkpt lat="44.40563" lon="4.19106">
        <ele>126.07</ele>
        <time>2016-02-02T15:58:38Z</time>
      </trkpt>
      <trkpt lat="44.40562" lon="4.19107">
        <ele>126.07</ele>
        <time>2016-02-02T15:58:39Z</time>
      </trkpt>
      <trkpt lat="44.40558" lon="4.19129">
        <ele>126.07</ele>
        <time>2016-02-02T15:58:54Z</time>
      </trkpt>
      <trkpt lat="44.40554" lon="4.19145">
        <ele>127.03</ele>
        <time>2016-02-02T15:59:07Z</time>
      </trkpt>
      <trkpt lat="44.40558" lon="4.19168">
        <ele>127.03</ele>
        <time>2016-02-02T15:59:23Z</time>
      </trkpt>
      <trkpt lat="44.40557" lon="4.19191">
        <ele>125.11</ele>
        <time>2016-02-02T15:59:39Z</time>
      </trkpt>
      <trkpt lat="44.40554" lon="4.19212">
        <ele>123.67</ele>
        <time>2016-02-02T15:59:56Z</time>
      </trkpt>
      <trkpt lat="44.40557" lon="4.19236">
        <ele>124.63</ele>
        <time>2016-02-02T16:00:12Z</time>
      </trkpt>
      <trkpt lat="44.40565" lon="4.19246">
        <ele>124.63</ele>
        <time>2016-02-02T16:00:30Z</time>
      </trkpt>
      <trkpt lat="44.40564" lon="4.19252">
        <ele>123.19</ele>
        <time>2016-02-02T16:00:36Z</time>
      </trkpt>
      <trkpt lat="44.40555" lon="4.19265">
        <ele>122.22</ele>
        <time>2016-02-02T16:00:50Z</time>
      </trkpt>
      <trkpt lat="44.40561" lon="4.19273">
        <ele>122.22</ele>
        <time>2016-02-02T16:01:12Z</time>
      </trkpt>
      <trkpt lat="44.40565" lon="4.19294">
        <ele>121.74</ele>
        <time>2016-02-02T16:01:26Z</time>
      </trkpt>
      <trkpt lat="44.40568" lon="4.19305">
        <ele>122.71</ele>
        <time>2016-02-02T16:01:40Z</time>
      </trkpt>
      <trkpt lat="44.40569" lon="4.19306">
        <ele>122.71</ele>
        <time>2016-02-02T16:01:41Z</time>
      </trkpt>
      <trkpt lat="44.40572" lon="4.1932">
        <ele>120.78</ele>
        <time>2016-02-02T16:01:58Z</time>
      </trkpt>
      <trkpt lat="44.40579" lon="4.19344">
        <ele>120.3</ele>
        <time>2016-02-02T16:02:15Z</time>
      </trkpt>
      <trkpt lat="44.4058" lon="4.19347">
        <ele>121.74</ele>
        <time>2016-02-02T16:02:18Z</time>
      </trkpt>
      <trkpt lat="44.4058" lon="4.19352">
        <ele>122.22</ele>
        <time>2016-02-02T16:02:23Z</time>
      </trkpt>
      <trkpt lat="44.40582" lon="4.19375">
        <ele>123.19</ele>
        <time>2016-02-02T16:02:38Z</time>
      </trkpt>
      <trkpt lat="44.40582" lon="4.19377">
        <ele>123.19</ele>
        <time>2016-02-02T16:02:43Z</time>
      </trkpt>
      <trkpt lat="44.40582" lon="4.19392">
        <ele>121.74</ele>
        <time>2016-02-02T16:02:55Z</time>
      </trkpt>
      <trkpt lat="44.40583" lon="4.19397">
        <ele>121.74</ele>
        <time>2016-02-02T16:03:00Z</time>
      </trkpt>
      <trkpt lat="44.40583" lon="4.19402">
        <ele>120.3</ele>
        <time>2016-02-02T16:03:03Z</time>
      </trkpt>
      <trkpt lat="44.40584" lon="4.19403">
        <ele>122.71</ele>
        <time>2016-02-02T16:03:05Z</time>
      </trkpt>
      <trkpt lat="44.40588" lon="4.1941">
        <ele>124.15</ele>
        <time>2016-02-02T16:03:16Z</time>
      </trkpt>
      <trkpt lat="44.40592" lon="4.19425">
        <ele>125.11</ele>
        <time>2016-02-02T16:03:27Z</time>
      </trkpt>
      <trkpt lat="44.40598" lon="4.19448">
        <ele>127.03</ele>
        <time>2016-02-02T16:03:43Z</time>
      </trkpt>
      <trkpt lat="44.40598" lon="4.19465">
        <ele>127.51</ele>
        <time>2016-02-02T16:04:00Z</time>
      </trkpt>
      <trkpt lat="44.40592" lon="4.19484">
        <ele>127.51</ele>
        <time>2016-02-02T16:04:17Z</time>
      </trkpt>
      <trkpt lat="44.40585" lon="4.19495">
        <ele>127.99</ele>
        <time>2016-02-02T16:04:33Z</time>
      </trkpt>
      <trkpt lat="44.40574" lon="4.19519">
        <ele>126.55</ele>
        <time>2016-02-02T16:04:49Z</time>
      </trkpt>
      <trkpt lat="44.4057" lon="4.19527">
        <ele>127.99</ele>
        <time>2016-02-02T16:04:58Z</time>
      </trkpt>
      <trkpt lat="44.40568" lon="4.19529">
        <ele>126.55</ele>
        <time>2016-02-02T16:05:03Z</time>
      </trkpt>
      <trkpt lat="44.40566" lon="4.19531">
        <ele>125.59</ele>
        <time>2016-02-02T16:05:08Z</time>
      </trkpt>
      <trkpt lat="44.4056" lon="4.19542">
        <ele>127.03</ele>
        <time>2016-02-02T16:05:19Z</time>
      </trkpt>
      <trkpt lat="44.4055" lon="4.19554">
        <ele>130.4</ele>
        <time>2016-02-02T16:05:34Z</time>
      </trkpt>
      <trkpt lat="44.40547" lon="4.19569">
        <ele>131.36</ele>
        <time>2016-02-02T16:05:47Z</time>
      </trkpt>
      <trkpt lat="44.40543" lon="4.19572">
        <ele>132.8</ele>
        <time>2016-02-02T16:06:02Z</time>
      </trkpt>
      <trkpt lat="44.40535" lon="4.19576">
        <ele>135.68</ele>
        <time>2016-02-02T16:06:17Z</time>
      </trkpt>
      <trkpt lat="44.40525" lon="4.19582">
        <ele>137.61</ele>
        <time>2016-02-02T16:06:36Z</time>
      </trkpt>
      <trkpt lat="44.40519" lon="4.19588">
        <ele>141.93</ele>
        <time>2016-02-02T16:06:59Z</time>
      </trkpt>
      <trkpt lat="44.4052" lon="4.19588">
        <ele>141.93</ele>
        <time>2016-02-02T16:07:00Z</time>
      </trkpt>
      <trkpt lat="44.40515" lon="4.19588">
        <ele>142.41</ele>
        <time>2016-02-02T16:07:13Z</time>
      </trkpt>
      <trkpt lat="44.40521" lon="4.19585">
        <ele>143.37</ele>
        <time>2016-02-02T16:07:37Z</time>
      </trkpt>
      <trkpt lat="44.40519" lon="4.19585">
        <ele>144.82</ele>
        <time>2016-02-02T16:07:43Z</time>
      </trkpt>
      <trkpt lat="44.40515" lon="4.19595">
        <ele>147.7</ele>
        <time>2016-02-02T16:08:03Z</time>
      </trkpt>
      <trkpt lat="44.40521" lon="4.19601">
        <ele>146.26</ele>
        <time>2016-02-02T16:08:11Z</time>
      </trkpt>
      <trkpt lat="44.40524" lon="4.19603">
        <ele>148.18</ele>
        <time>2016-02-02T16:08:15Z</time>
      </trkpt>
      <trkpt lat="44.40527" lon="4.19604">
        <ele>149.14</ele>
        <time>2016-02-02T16:08:21Z</time>
      </trkpt>
      <trkpt lat="44.40525" lon="4.19607">
        <ele>150.58</ele>
        <time>2016-02-02T16:08:33Z</time>
      </trkpt>
      <trkpt lat="44.40529" lon="4.19607">
        <ele>152.03</ele>
        <time>2016-02-02T16:08:56Z</time>
      </trkpt>
      <trkpt lat="44.40522" lon="4.19605">
        <ele>153.47</ele>
        <time>2016-02-02T16:09:17Z</time>
      </trkpt>
      <trkpt lat="44.40521" lon="4.19604">
        <ele>156.83</ele>
        <time>2016-02-02T16:09:18Z</time>
      </trkpt>
      <trkpt lat="44.40511" lon="4.19611">
        <ele>157.79</ele>
        <time>2016-02-02T16:09:39Z</time>
      </trkpt>
      <trkpt lat="44.40505" lon="4.19619">
        <ele>161.64</ele>
        <time>2016-02-02T16:09:57Z</time>
      </trkpt>
      <trkpt lat="44.40502" lon="4.19617">
        <ele>163.56</ele>
        <time>2016-02-02T16:10:18Z</time>
      </trkpt>
      <trkpt lat="44.405" lon="4.19617">
        <ele>164.52</ele>
        <time>2016-02-02T16:10:31Z</time>
      </trkpt>
      <trkpt lat="44.4051" lon="4.19635">
        <ele>166.93</ele>
        <time>2016-02-02T16:10:51Z</time>
      </trkpt>
      <trkpt lat="44.40509" lon="4.19638">
        <ele>168.85</ele>
        <time>2016-02-02T16:11:12Z</time>
      </trkpt>
      <trkpt lat="44.40507" lon="4.19637">
        <ele>170.29</ele>
        <time>2016-02-02T16:11:15Z</time>
      </trkpt>
      <trkpt lat="44.40507" lon="4.19637">
        <ele>168.85</ele>
        <time>2016-02-02T16:11:17Z</time>
      </trkpt>
      <trkpt lat="44.40506" lon="4.1964">
        <ele>170.77</ele>
        <time>2016-02-02T16:11:19Z</time>
      </trkpt>
      <trkpt lat="44.40506" lon="4.19654">
        <ele>172.69</ele>
        <time>2016-02-02T16:11:39Z</time>
      </trkpt>
      <trkpt lat="44.40509" lon="4.19652">
        <ele>173.66</ele>
        <time>2016-02-02T16:11:42Z</time>
      </trkpt>
      <trkpt lat="44.40517" lon="4.19647">
        <ele>173.66</ele>
        <time>2016-02-02T16:11:49Z</time>
      </trkpt>
      <trkpt lat="44.40527" lon="4.19651">
        <ele>173.66</ele>
        <time>2016-02-02T16:12:03Z</time>
      </trkpt>
      <trkpt lat="44.40539" lon="4.19653">
        <ele>174.14</ele>
        <time>2016-02-02T16:12:17Z</time>
      </trkpt>
      <trkpt lat="44.40548" lon="4.19658">
        <ele>175.1</ele>
        <time>2016-02-02T16:12:27Z</time>
      </trkpt>
      <trkpt lat="44.40546" lon="4.19658">
        <ele>175.1</ele>
        <time>2016-02-02T16:12:39Z</time>
      </trkpt>
      <trkpt lat="44.40547" lon="4.19658">
        <ele>175.1</ele>
        <time>2016-02-02T16:13:13Z</time>
      </trkpt>
      <trkpt lat="44.40554" lon="4.19668">
        <ele>175.1</ele>
        <time>2016-02-02T16:13:36Z</time>
      </trkpt>
      <trkpt lat="44.40563" lon="4.19667">
        <ele>175.58</ele>
        <time>2016-02-02T16:13:47Z</time>
      </trkpt>
      <trkpt lat="44.40572" lon="4.19675">
        <ele>176.54</ele>
        <time>2016-02-02T16:14:00Z</time>
      </trkpt>
      <trkpt lat="44.40583" lon="4.19676">
        <ele>176.54</ele>
        <time>2016-02-02T16:14:10Z</time>
      </trkpt>
      <trkpt lat="44.40593" lon="4.19675">
        <ele>176.54</ele>
        <time>2016-02-02T16:14:21Z</time>
      </trkpt>
    </trkseg>
  </trk>
</gpx>